UAL56 LFPG-KEWR
Flight info
| Callsign | UAL56 |
|---|---|
| Flight time | 7h 15m |
| Altitude | 36000 |
| Route | ELCOB UT300 SENLO DCT JSY DCT LIZAD DCT LULOX/M082F360 DCT ELSOX DCT DINIM/M082F370 NATG TUDEP/N0470F380 N526A TOPPS DCT HANAA FLOSI4 |
| Aircraft | B772/H-SDE2E3FGHIJ5LORVWXY/LB1D1 |
Departure
| Time | 2026-04-26 09:23 |
|---|---|
| Airport | Charles de Gaulle International Airport (LFPG) |
Arrival
| Time | 2026-04-26 16:38 |
|---|---|
| Airport | Newark Liberty International Airport (KEWR) |
| Time | Latitude | Longitude | Altitude | Speed | Heading |
|---|---|---|---|---|---|
| 2026-04-26 08:56 | 49.01356 | 2.54602 | 366 ft | 0 kts | 286° |
| 2026-04-26 09:12 | 49.01353 | 2.54615 | 624 ft | 4 kts | 288° |
| 2026-04-26 09:12 | 49.01345 | 2.54654 | 360 ft | 4 kts | 291° |
| 2026-04-26 09:13 | 49.01332 | 2.54688 | 365 ft | 4 kts | 317° |
| 2026-04-26 09:13 | 49.01311 | 2.54707 | 363 ft | 4 kts | 359° |
| 2026-04-26 09:13 | 49.01299 | 2.54706 | 363 ft | 0 kts | 17° |
| 2026-04-26 09:16 | 49.01300 | 2.54706 | 363 ft | 1 kts | 17° |
| 2026-04-26 09:16 | 49.01324 | 2.54717 | 367 ft | 6 kts | 17° |
| 2026-04-26 09:16 | 49.01381 | 2.54740 | 366 ft | 10 kts | 8° |
| 2026-04-26 09:17 | 49.01466 | 2.54747 | 365 ft | 14 kts | 358° |
| 2026-04-26 09:17 | 49.01569 | 2.54714 | 363 ft | 15 kts | 338° |
| 2026-04-26 09:17 | 49.01662 | 2.54640 | 365 ft | 15 kts | 321° |
| 2026-04-26 09:17 | 49.01736 | 2.54525 | 367 ft | 15 kts | 309° |
| 2026-04-26 09:18 | 49.01789 | 2.54390 | 367 ft | 15 kts | 296° |
| 2026-04-26 09:18 | 49.01815 | 2.54234 | 365 ft | 15 kts | 272° |
| 2026-04-26 09:18 | 49.01808 | 2.54074 | 361 ft | 15 kts | 265° |
| 2026-04-26 09:18 | 49.01799 | 2.53902 | 362 ft | 18 kts | 265° |
| 2026-04-26 09:19 | 49.01788 | 2.53699 | 365 ft | 20 kts | 265° |
| 2026-04-26 09:19 | 49.01777 | 2.53488 | 364 ft | 20 kts | 265° |
| 2026-04-26 09:19 | 49.01764 | 2.53277 | 359 ft | 20 kts | 263° |
| 2026-04-26 09:19 | 49.01752 | 2.53064 | 364 ft | 20 kts | 266° |
| 2026-04-26 09:20 | 49.01742 | 2.52852 | 365 ft | 20 kts | 266° |
| 2026-04-26 09:20 | 49.01731 | 2.52640 | 364 ft | 20 kts | 265° |
| 2026-04-26 09:20 | 49.01720 | 2.52427 | 365 ft | 20 kts | 265° |
| 2026-04-26 09:20 | 49.01710 | 2.52219 | 361 ft | 18 kts | 269° |
| 2026-04-26 09:21 | 49.01789 | 2.52139 | 359 ft | 15 kts | 355° |
| 2026-04-26 09:21 | 49.01892 | 2.52125 | 364 ft | 15 kts | 355° |
| 2026-04-26 09:21 | 49.01996 | 2.52111 | 363 ft | 15 kts | 355° |
| 2026-04-26 09:21 | 49.02093 | 2.52102 | 364 ft | 12 kts | 1° |
| 2026-04-26 09:22 | 49.02108 | 2.52138 | 364 ft | 3 kts | 86° |
| 2026-04-26 09:22 | 49.02113 | 2.52224 | 359 ft | 21 kts | 85° |
| 2026-04-26 09:22 | 49.02145 | 2.52787 | 360 ft | 87 kts | 85° |
| 2026-04-26 09:22 | 49.02210 | 2.54022 | 362 ft | 145 kts | 85° |
| 2026-04-26 09:23 | 49.02296 | 2.55728 | 651 ft | 166 kts | 84° |
| 2026-04-26 09:23 | 49.02385 | 2.57488 | 1325 ft | 166 kts | 85° |
| 2026-04-26 09:23 | 49.02475 | 2.59234 | 2073 ft | 166 kts | 85° |
| 2026-04-26 09:23 | 49.02576 | 2.61101 | 2341 ft | 188 kts | 85° |
| 2026-04-26 09:24 | 49.02693 | 2.63200 | 2522 ft | 209 kts | 85° |
| 2026-04-26 09:24 | 49.02824 | 2.65527 | 2717 ft | 230 kts | 85° |
| 2026-04-26 09:24 | 49.02955 | 2.68033 | 3097 ft | 241 kts | 85° |
| 2026-04-26 09:24 | 49.03085 | 2.70584 | 3605 ft | 249 kts | 85° |
| 2026-04-26 09:25 | 49.03331 | 2.73183 | 4052 ft | 251 kts | 70° |
| 2026-04-26 09:25 | 49.04365 | 2.75317 | 4488 ft | 256 kts | 38° |
| 2026-04-26 09:25 | 49.06009 | 2.76417 | 4986 ft | 264 kts | 11° |
| 2026-04-26 09:25 | 49.07853 | 2.76269 | 5539 ft | 271 kts | 345° |
| 2026-04-26 09:26 | 49.09481 | 2.74858 | 6116 ft | 273 kts | 316° |
| 2026-04-26 09:26 | 49.10480 | 2.72409 | 6642 ft | 277 kts | 285° |
| 2026-04-26 09:26 | 49.10622 | 2.69484 | 7077 ft | 278 kts | 266° |
| 2026-04-26 09:26 | 49.10459 | 2.66497 | 7438 ft | 285 kts | 265° |
| 2026-04-26 09:27 | 49.10032 | 2.63565 | 7830 ft | 284 kts | 249° |
| 2026-04-26 09:27 | 49.09240 | 2.60774 | 8241 ft | 289 kts | 246° |
| 2026-04-26 09:27 | 49.08415 | 2.57994 | 8830 ft | 287 kts | 246° |
| 2026-04-26 09:27 | 49.07610 | 2.55204 | 9313 ft | 288 kts | 247° |
| 2026-04-26 09:28 | 49.06810 | 2.52390 | 9796 ft | 290 kts | 247° |
| 2026-04-26 09:28 | 49.06013 | 2.49554 | 10249 ft | 292 kts | 248° |
| 2026-04-26 09:28 | 49.05210 | 2.46676 | 10492 ft | 302 kts | 248° |
| 2026-04-26 09:28 | 49.04370 | 2.43651 | 10595 ft | 317 kts | 248° |
| 2026-04-26 09:29 | 49.03490 | 2.40489 | 10711 ft | 332 kts | 248° |
| 2026-04-26 09:29 | 49.02575 | 2.37180 | 10838 ft | 344 kts | 250° |
| 2026-04-26 09:29 | 49.02067 | 2.33657 | 10931 ft | 349 kts | 270° |
| 2026-04-26 09:29 | 49.02163 | 2.29924 | 11194 ft | 357 kts | 274° |
| 2026-04-26 09:30 | 49.02264 | 2.26132 | 11816 ft | 359 kts | 273° |
| 2026-04-26 09:30 | 49.02339 | 2.22323 | 12549 ft | 360 kts | 272° |
| 2026-04-26 09:30 | 49.02400 | 2.18501 | 13289 ft | 363 kts | 271° |
| 2026-04-26 09:30 | 49.02454 | 2.14625 | 13891 ft | 369 kts | 271° |
| 2026-04-26 09:31 | 49.02504 | 2.10711 | 14572 ft | 370 kts | 271° |
| 2026-04-26 09:31 | 49.02550 | 2.06785 | 15220 ft | 372 kts | 271° |
| 2026-04-26 09:31 | 49.02595 | 2.02841 | 15885 ft | 373 kts | 271° |
| 2026-04-26 09:31 | 49.02638 | 1.98870 | 16431 ft | 378 kts | 272° |
| 2026-04-26 09:32 | 49.02680 | 1.94857 | 17005 ft | 380 kts | 271° |
| 2026-04-26 09:32 | 49.02720 | 1.90805 | 17535 ft | 385 kts | 271° |
| 2026-04-26 09:32 | 49.02760 | 1.86733 | 18174 ft | 385 kts | 271° |
| 2026-04-26 09:32 | 49.02799 | 1.82635 | 18682 ft | 388 kts | 271° |
| 2026-04-26 09:33 | 49.02837 | 1.78510 | 19164 ft | 391 kts | 271° |
| 2026-04-26 09:33 | 49.02872 | 1.74340 | 19618 ft | 394 kts | 271° |
| 2026-04-26 09:33 | 49.02907 | 1.70155 | 20061 ft | 396 kts | 271° |
| 2026-04-26 09:33 | 49.02940 | 1.66008 | 20530 ft | 398 kts | 271° |
| 2026-04-26 09:34 | 49.02972 | 1.61775 | 21004 ft | 400 kts | 271° |
| 2026-04-26 09:34 | 49.03004 | 1.57528 | 21454 ft | 402 kts | 271° |
| 2026-04-26 09:34 | 49.03034 | 1.53253 | 21900 ft | 404 kts | 271° |
| 2026-04-26 09:34 | 49.03061 | 1.48962 | 22350 ft | 406 kts | 271° |
| 2026-04-26 09:35 | 49.03087 | 1.44646 | 22802 ft | 408 kts | 271° |
| 2026-04-26 09:35 | 49.03112 | 1.40304 | 23223 ft | 411 kts | 271° |
| 2026-04-26 09:35 | 49.03136 | 1.35945 | 23649 ft | 413 kts | 271° |
| 2026-04-26 09:35 | 49.03158 | 1.31562 | 24033 ft | 415 kts | 271° |
| 2026-04-26 09:36 | 49.03180 | 1.27161 | 24380 ft | 416 kts | 271° |
| 2026-04-26 09:36 | 49.03199 | 1.22730 | 24746 ft | 418 kts | 271° |
| 2026-04-26 09:36 | 49.03251 | 1.18296 | 25100 ft | 419 kts | 273° |
| 2026-04-26 09:36 | 49.03377 | 1.13851 | 25455 ft | 421 kts | 274° |
| 2026-04-26 09:37 | 49.03531 | 1.09387 | 25800 ft | 422 kts | 274° |
| 2026-04-26 09:37 | 49.03687 | 1.04964 | 26130 ft | 424 kts | 274° |
| 2026-04-26 09:37 | 49.03840 | 1.00466 | 26480 ft | 426 kts | 274° |
| 2026-04-26 09:37 | 49.03985 | 0.95950 | 26813 ft | 427 kts | 274° |
| 2026-04-26 09:38 | 49.04123 | 0.91416 | 27115 ft | 429 kts | 274° |
| 2026-04-26 09:38 | 49.04257 | 0.86846 | 27444 ft | 431 kts | 274° |
| 2026-04-26 09:38 | 49.04387 | 0.82282 | 27808 ft | 432 kts | 274° |
| 2026-04-26 09:38 | 49.04514 | 0.77708 | 28146 ft | 433 kts | 274° |
| 2026-04-26 09:39 | 49.04640 | 0.73113 | 28465 ft | 435 kts | 274° |
| 2026-04-26 09:39 | 49.04765 | 0.68501 | 28776 ft | 436 kts | 274° |
| 2026-04-26 09:39 | 49.04888 | 0.63869 | 29084 ft | 438 kts | 274° |
| 2026-04-26 09:39 | 49.05010 | 0.59217 | 29382 ft | 440 kts | 274° |
| 2026-04-26 09:40 | 49.05131 | 0.54542 | 29687 ft | 441 kts | 274° |
| 2026-04-26 09:40 | 49.05251 | 0.49862 | 29977 ft | 443 kts | 274° |
| 2026-04-26 09:40 | 49.05367 | 0.45225 | 30257 ft | 444 kts | 274° |
| 2026-04-26 09:40 | 49.05485 | 0.40452 | 30509 ft | 446 kts | 274° |
| 2026-04-26 09:41 | 49.05600 | 0.35722 | 30754 ft | 447 kts | 274° |
| 2026-04-26 09:41 | 49.05710 | 0.31048 | 30967 ft | 448 kts | 274° |
| 2026-04-26 09:41 | 49.05822 | 0.26293 | 31153 ft | 450 kts | 274° |
| 2026-04-26 09:41 | 49.05932 | 0.21512 | 31359 ft | 451 kts | 274° |
| 2026-04-26 09:42 | 49.06040 | 0.16720 | 31529 ft | 453 kts | 274° |
| 2026-04-26 09:42 | 49.06147 | 0.11912 | 31718 ft | 454 kts | 273° |
| 2026-04-26 09:42 | 49.06252 | 0.07091 | 31898 ft | 455 kts | 273° |
| 2026-04-26 09:42 | 49.06355 | 0.02262 | 32144 ft | 455 kts | 273° |
| 2026-04-26 09:43 | 49.06456 | -0.02552 | 32412 ft | 454 kts | 273° |
| 2026-04-26 09:43 | 49.06554 | -0.07350 | 32732 ft | 452 kts | 273° |
| 2026-04-26 09:43 | 49.06650 | -0.12132 | 33009 ft | 450 kts | 273° |
| 2026-04-26 09:43 | 49.06745 | -0.16905 | 33259 ft | 450 kts | 273° |
| 2026-04-26 09:44 | 49.06807 | -0.20059 | 33417 ft | 450 kts | 273° |
| 2026-04-26 09:44 | 49.06898 | -0.24824 | 33667 ft | 449 kts | 273° |
| 2026-04-26 09:44 | 49.06986 | -0.29574 | 33936 ft | 448 kts | 273° |
| 2026-04-26 09:44 | 49.07073 | -0.34321 | 34171 ft | 447 kts | 273° |
| 2026-04-26 09:45 | 49.07158 | -0.39058 | 34403 ft | 447 kts | 273° |
| 2026-04-26 09:45 | 49.07242 | -0.43788 | 34602 ft | 446 kts | 273° |
| 2026-04-26 09:45 | 49.07324 | -0.48518 | 34780 ft | 446 kts | 273° |
| 2026-04-26 09:45 | 49.07403 | -0.53245 | 34962 ft | 446 kts | 272° |
| 2026-04-26 09:46 | 49.07481 | -0.57971 | 35151 ft | 446 kts | 272° |
| 2026-04-26 09:46 | 49.07557 | -0.62694 | 35343 ft | 445 kts | 272° |
| 2026-04-26 09:46 | 49.07631 | -0.67414 | 35522 ft | 445 kts | 272° |
| 2026-04-26 09:46 | 49.07703 | -0.72136 | 35697 ft | 445 kts | 272° |
| 2026-04-26 09:47 | 49.07773 | -0.76852 | 35872 ft | 445 kts | 272° |
| 2026-04-26 09:47 | 49.07841 | -0.81568 | 36065 ft | 444 kts | 272° |
| 2026-04-26 09:47 | 49.07907 | -0.86281 | 36163 ft | 445 kts | 272° |
| 2026-04-26 09:48 | 49.08034 | -0.95753 | 36252 ft | 447 kts | 272° |
| 2026-04-26 09:48 | 49.08153 | -1.05144 | 36241 ft | 444 kts | 272° |
| 2026-04-26 09:49 | 49.08286 | -1.14516 | 36246 ft | 440 kts | 274° |
| 2026-04-26 09:49 | 49.09187 | -1.23699 | 36252 ft | 437 kts | 284° |
| 2026-04-26 09:50 | 49.10693 | -1.32697 | 36248 ft | 437 kts | 283° |
| 2026-04-26 09:50 | 49.12170 | -1.41726 | 36249 ft | 438 kts | 283° |
| 2026-04-26 09:51 | 49.13627 | -1.50775 | 36249 ft | 440 kts | 283° |
| 2026-04-26 09:51 | 49.15077 | -1.59866 | 36252 ft | 441 kts | 283° |
| 2026-04-26 09:52 | 49.16524 | -1.68984 | 36258 ft | 442 kts | 283° |
| 2026-04-26 09:52 | 49.18686 | -1.82699 | 36262 ft | 443 kts | 283° |
| 2026-04-26 09:53 | 49.20120 | -1.91867 | 36246 ft | 443 kts | 283° |
| 2026-04-26 09:53 | 49.21551 | -2.01051 | 36243 ft | 443 kts | 282° |
| 2026-04-26 09:54 | 49.23018 | -2.10205 | 36255 ft | 443 kts | 284° |
| 2026-04-26 09:54 | 49.24586 | -2.19257 | 36257 ft | 443 kts | 284° |
| 2026-04-26 09:55 | 49.26167 | -2.28361 | 36248 ft | 442 kts | 283° |
| 2026-04-26 09:55 | 49.27723 | -2.37463 | 36247 ft | 442 kts | 283° |
| 2026-04-26 09:56 | 49.29262 | -2.46565 | 36243 ft | 441 kts | 283° |
| 2026-04-26 09:56 | 49.30790 | -2.55659 | 36241 ft | 441 kts | 283° |
| 2026-04-26 09:57 | 49.32311 | -2.64753 | 36236 ft | 440 kts | 283° |
| 2026-04-26 09:57 | 49.33824 | -2.73852 | 36234 ft | 441 kts | 282° |
| 2026-04-26 09:58 | 49.35335 | -2.82985 | 36250 ft | 442 kts | 282° |
| 2026-04-26 09:58 | 49.36842 | -2.92147 | 36251 ft | 444 kts | 282° |
| 2026-04-26 09:59 | 49.38340 | -3.01295 | 36256 ft | 445 kts | 282° |
| 2026-04-26 09:59 | 49.39843 | -3.10529 | 36252 ft | 446 kts | 282° |
| 2026-04-26 10:00 | 49.41343 | -3.19793 | 36254 ft | 448 kts | 282° |
| 2026-04-26 10:00 | 49.42838 | -3.29081 | 36256 ft | 449 kts | 282° |
| 2026-04-26 10:01 | 49.44329 | -3.38400 | 36253 ft | 449 kts | 282° |
| 2026-04-26 10:01 | 49.45816 | -3.47736 | 36250 ft | 450 kts | 282° |
| 2026-04-26 10:02 | 49.47295 | -3.57084 | 36262 ft | 450 kts | 282° |
| 2026-04-26 10:02 | 49.48768 | -3.66441 | 36258 ft | 450 kts | 282° |
| 2026-04-26 10:03 | 49.50235 | -3.75814 | 36252 ft | 451 kts | 281° |
| 2026-04-26 10:03 | 49.51692 | -3.85184 | 36255 ft | 450 kts | 281° |
| 2026-04-26 10:04 | 49.53142 | -3.94557 | 36255 ft | 450 kts | 281° |
| 2026-04-26 10:04 | 49.54574 | -4.03867 | 36262 ft | 450 kts | 281° |
| 2026-04-26 10:05 | 49.56007 | -4.13243 | 36257 ft | 450 kts | 281° |
| 2026-04-26 10:05 | 49.57433 | -4.22616 | 36258 ft | 449 kts | 281° |
| 2026-04-26 10:06 | 49.58857 | -4.31986 | 36259 ft | 449 kts | 282° |
| 2026-04-26 10:06 | 49.60817 | -4.41145 | 36262 ft | 450 kts | 287° |
| 2026-04-26 10:07 | 49.62940 | -4.50226 | 36267 ft | 450 kts | 287° |
| 2026-04-26 10:07 | 49.65044 | -4.59330 | 36263 ft | 451 kts | 287° |
| 2026-04-26 10:08 | 49.67129 | -4.68456 | 36267 ft | 451 kts | 287° |
| 2026-04-26 10:08 | 49.69201 | -4.77596 | 36263 ft | 451 kts | 287° |
| 2026-04-26 10:09 | 49.71271 | -4.86763 | 36264 ft | 452 kts | 287° |
| 2026-04-26 10:09 | 49.73332 | -4.95932 | 36262 ft | 452 kts | 287° |
| 2026-04-26 10:10 | 49.75374 | -5.05053 | 36264 ft | 452 kts | 287° |
| 2026-04-26 10:10 | 49.77422 | -5.14240 | 36261 ft | 452 kts | 287° |
| 2026-04-26 10:11 | 49.79462 | -5.23434 | 36259 ft | 452 kts | 287° |
| 2026-04-26 10:11 | 49.81496 | -5.32640 | 36258 ft | 452 kts | 286° |
| 2026-04-26 10:12 | 49.83523 | -5.41854 | 36261 ft | 452 kts | 286° |
| 2026-04-26 10:12 | 49.85542 | -5.51075 | 36270 ft | 452 kts | 286° |
| 2026-04-26 10:13 | 49.87553 | -5.60299 | 36270 ft | 452 kts | 286° |
| 2026-04-26 10:13 | 49.89555 | -5.69523 | 36275 ft | 451 kts | 286° |
| 2026-04-26 10:14 | 49.91550 | -5.78757 | 36267 ft | 451 kts | 286° |
| 2026-04-26 10:14 | 49.93524 | -5.87937 | 36267 ft | 451 kts | 286° |
| 2026-04-26 10:15 | 49.95505 | -5.97185 | 36274 ft | 452 kts | 285° |
| 2026-04-26 10:15 | 49.97480 | -6.06450 | 36282 ft | 452 kts | 285° |
| 2026-04-26 10:16 | 49.99448 | -6.15730 | 36280 ft | 452 kts | 285° |
| 2026-04-26 10:16 | 50.01412 | -6.25025 | 36285 ft | 453 kts | 285° |
| 2026-04-26 10:17 | 50.03368 | -6.34330 | 36292 ft | 453 kts | 285° |
| 2026-04-26 10:17 | 50.05319 | -6.43648 | 36295 ft | 453 kts | 284° |
| 2026-04-26 10:18 | 50.07263 | -6.52986 | 36288 ft | 454 kts | 284° |
| 2026-04-26 10:18 | 50.09188 | -6.62272 | 36288 ft | 454 kts | 284° |
| 2026-04-26 10:19 | 50.11119 | -6.71629 | 36288 ft | 454 kts | 284° |
| 2026-04-26 10:19 | 50.13041 | -6.80986 | 36289 ft | 454 kts | 284° |
| 2026-04-26 10:20 | 50.14634 | -6.88774 | 36299 ft | 454 kts | 284° |
| 2026-04-26 10:20 | 50.16866 | -6.99742 | 36290 ft | 454 kts | 284° |
| 2026-04-26 10:21 | 50.18769 | -7.09137 | 36295 ft | 454 kts | 284° |
| 2026-04-26 10:21 | 50.20665 | -7.18548 | 36309 ft | 455 kts | 284° |
| 2026-04-26 10:22 | 50.22556 | -7.27976 | 36290 ft | 455 kts | 284° |
| 2026-04-26 10:22 | 50.24439 | -7.37411 | 36304 ft | 455 kts | 283° |
| 2026-04-26 10:23 | 50.26316 | -7.46861 | 36293 ft | 456 kts | 283° |
| 2026-04-26 10:23 | 50.28186 | -7.56322 | 36291 ft | 456 kts | 283° |
| 2026-04-26 10:24 | 50.30050 | -7.65800 | 36291 ft | 456 kts | 283° |
| 2026-04-26 10:24 | 50.31896 | -7.75231 | 36291 ft | 456 kts | 283° |
| 2026-04-26 10:25 | 50.33745 | -7.84728 | 36291 ft | 456 kts | 283° |
| 2026-04-26 10:25 | 50.35591 | -7.94246 | 36297 ft | 457 kts | 283° |
| 2026-04-26 10:26 | 50.37265 | -8.03835 | 36304 ft | 455 kts | 278° |
| 2026-04-26 10:26 | 50.38532 | -8.13548 | 36294 ft | 456 kts | 277° |
| 2026-04-26 10:27 | 50.39783 | -8.23301 | 36294 ft | 456 kts | 277° |
| 2026-04-26 10:27 | 50.41040 | -8.33051 | 36291 ft | 457 kts | 277° |
| 2026-04-26 10:28 | 50.42303 | -8.42830 | 36299 ft | 458 kts | 277° |
| 2026-04-26 10:28 | 50.43562 | -8.52626 | 36294 ft | 459 kts | 277° |
| 2026-04-26 10:29 | 50.44815 | -8.62442 | 36295 ft | 459 kts | 277° |
| 2026-04-26 10:29 | 50.46060 | -8.72273 | 36293 ft | 459 kts | 277° |
| 2026-04-26 10:30 | 50.47296 | -8.82103 | 36292 ft | 459 kts | 277° |
| 2026-04-26 10:30 | 50.48515 | -8.91871 | 36301 ft | 460 kts | 277° |
| 2026-04-26 10:31 | 50.49736 | -9.01732 | 36300 ft | 460 kts | 277° |
| 2026-04-26 10:31 | 50.50953 | -9.11622 | 36294 ft | 461 kts | 277° |
| 2026-04-26 10:32 | 50.52160 | -9.21512 | 36305 ft | 461 kts | 276° |
| 2026-04-26 10:32 | 50.53360 | -9.31409 | 36292 ft | 461 kts | 276° |
| 2026-04-26 10:33 | 50.54552 | -9.41321 | 36293 ft | 461 kts | 276° |
| 2026-04-26 10:33 | 50.55736 | -9.51241 | 36297 ft | 461 kts | 276° |
| 2026-04-26 10:34 | 50.56911 | -9.61166 | 36297 ft | 461 kts | 276° |
| 2026-04-26 10:34 | 50.58078 | -9.71091 | 36294 ft | 461 kts | 276° |
| 2026-04-26 10:35 | 50.59229 | -9.80961 | 36299 ft | 462 kts | 276° |
| 2026-04-26 10:35 | 50.60379 | -9.90896 | 36298 ft | 462 kts | 276° |
| 2026-04-26 10:36 | 50.61522 | -10.00854 | 36297 ft | 462 kts | 276° |
| 2026-04-26 10:36 | 50.62655 | -10.10802 | 36299 ft | 462 kts | 276° |
| 2026-04-26 10:37 | 50.63781 | -10.20760 | 36302 ft | 461 kts | 276° |
| 2026-04-26 10:37 | 50.64897 | -10.30716 | 36321 ft | 461 kts | 276° |
| 2026-04-26 10:38 | 50.65820 | -10.39018 | 36304 ft | 462 kts | 276° |
| 2026-04-26 10:38 | 50.66922 | -10.49000 | 36299 ft | 463 kts | 276° |
| 2026-04-26 10:39 | 50.68018 | -10.59004 | 36300 ft | 463 kts | 276° |
| 2026-04-26 10:39 | 50.69106 | -10.69018 | 36300 ft | 463 kts | 276° |
| 2026-04-26 10:40 | 50.70186 | -10.79046 | 36301 ft | 464 kts | 276° |
| 2026-04-26 10:40 | 50.71258 | -10.89081 | 36308 ft | 464 kts | 276° |
| 2026-04-26 10:41 | 50.72323 | -10.99131 | 36300 ft | 464 kts | 276° |
| 2026-04-26 10:41 | 50.73376 | -11.09161 | 36301 ft | 463 kts | 276° |
| 2026-04-26 10:42 | 50.74413 | -11.19125 | 36304 ft | 462 kts | 276° |
| 2026-04-26 10:42 | 50.75446 | -11.29134 | 36305 ft | 462 kts | 276° |
| 2026-04-26 10:43 | 50.76470 | -11.39153 | 36306 ft | 462 kts | 276° |
| 2026-04-26 10:43 | 50.77487 | -11.49181 | 36312 ft | 462 kts | 277° |
| 2026-04-26 10:44 | 50.78495 | -11.59210 | 36304 ft | 462 kts | 277° |
| 2026-04-26 10:44 | 50.79494 | -11.69240 | 36304 ft | 462 kts | 276° |
| 2026-04-26 10:45 | 50.80483 | -11.79266 | 36304 ft | 462 kts | 276° |
| 2026-04-26 10:45 | 50.81465 | -11.89310 | 36303 ft | 462 kts | 277° |
| 2026-04-26 10:46 | 50.82439 | -11.99362 | 36305 ft | 462 kts | 277° |
| 2026-04-26 10:46 | 50.83404 | -12.09412 | 36304 ft | 462 kts | 277° |
| 2026-04-26 10:47 | 50.84356 | -12.19417 | 36308 ft | 463 kts | 277° |
| 2026-04-26 10:47 | 50.85304 | -12.29483 | 36316 ft | 463 kts | 277° |
| 2026-04-26 10:48 | 50.86245 | -12.39578 | 36304 ft | 464 kts | 277° |
| 2026-04-26 10:48 | 50.87179 | -12.49679 | 36306 ft | 464 kts | 277° |
| 2026-04-26 10:49 | 50.88105 | -12.59796 | 36302 ft | 465 kts | 277° |
| 2026-04-26 10:49 | 50.89023 | -12.69934 | 36302 ft | 465 kts | 277° |
| 2026-04-26 10:50 | 50.89781 | -12.78368 | 36301 ft | 465 kts | 277° |
| 2026-04-26 10:50 | 50.90835 | -12.90242 | 36299 ft | 466 kts | 277° |
| 2026-04-26 10:51 | 50.92176 | -13.05528 | 36302 ft | 467 kts | 277° |
| 2026-04-26 10:52 | 50.93053 | -13.15656 | 36302 ft | 467 kts | 277° |
| 2026-04-26 10:52 | 50.93927 | -13.25867 | 36301 ft | 467 kts | 277° |
| 2026-04-26 10:53 | 50.94791 | -13.36073 | 36301 ft | 466 kts | 277° |
| 2026-04-26 10:53 | 50.95645 | -13.46258 | 36294 ft | 465 kts | 277° |
| 2026-04-26 10:54 | 50.96902 | -13.61441 | 36295 ft | 464 kts | 277° |
| 2026-04-26 10:54 | 50.97731 | -13.71601 | 36293 ft | 464 kts | 277° |
| 2026-04-26 10:55 | 50.98549 | -13.81746 | 36292 ft | 463 kts | 278° |
| 2026-04-26 10:55 | 50.99360 | -13.91882 | 36298 ft | 462 kts | 278° |
| 2026-04-26 10:56 | 51.00063 | -14.02028 | 36293 ft | 462 kts | 272° |
| 2026-04-26 10:56 | 51.00097 | -14.12165 | 36295 ft | 462 kts | 270° |
| 2026-04-26 10:57 | 51.00083 | -14.22363 | 36290 ft | 462 kts | 271° |
| 2026-04-26 10:57 | 51.00088 | -14.32568 | 36269 ft | 462 kts | 271° |
| 2026-04-26 10:58 | 51.00099 | -14.42748 | 36289 ft | 461 kts | 271° |
| 2026-04-26 10:58 | 51.00103 | -14.52918 | 36295 ft | 460 kts | 271° |
| 2026-04-26 10:59 | 51.00097 | -14.63081 | 36293 ft | 460 kts | 271° |
| 2026-04-26 10:59 | 51.00082 | -14.73234 | 36293 ft | 460 kts | 271° |
| 2026-04-26 11:00 | 51.00059 | -14.83393 | 36296 ft | 459 kts | 271° |
| 2026-04-26 11:00 | 51.00050 | -14.93537 | 36295 ft | 459 kts | 274° |
| 2026-04-26 11:01 | 51.00943 | -15.03539 | 36295 ft | 456 kts | 284° |
| 2026-04-26 11:01 | 51.02844 | -15.13061 | 36292 ft | 455 kts | 290° |
| 2026-04-26 11:02 | 51.05007 | -15.22522 | 36296 ft | 456 kts | 290° |
| 2026-04-26 11:02 | 51.07157 | -15.32003 | 36280 ft | 456 kts | 290° |
| 2026-04-26 11:03 | 51.09278 | -15.41498 | 36293 ft | 455 kts | 290° |
| 2026-04-26 11:03 | 51.11376 | -15.50984 | 36292 ft | 454 kts | 290° |
| 2026-04-26 11:04 | 51.13450 | -15.60409 | 36293 ft | 453 kts | 290° |
| 2026-04-26 11:04 | 51.15523 | -15.69875 | 36293 ft | 452 kts | 290° |
| 2026-04-26 11:05 | 51.17586 | -15.79332 | 36287 ft | 452 kts | 290° |
| 2026-04-26 11:05 | 51.19640 | -15.88795 | 36277 ft | 451 kts | 290° |
| 2026-04-26 11:06 | 51.21338 | -15.96650 | 36292 ft | 451 kts | 290° |
| 2026-04-26 11:06 | 51.23716 | -16.07700 | 36287 ft | 450 kts | 290° |
| 2026-04-26 11:07 | 51.25740 | -16.17149 | 36288 ft | 450 kts | 290° |
| 2026-04-26 11:07 | 51.27753 | -16.26596 | 36285 ft | 449 kts | 289° |
| 2026-04-26 11:08 | 51.29759 | -16.36050 | 36285 ft | 449 kts | 289° |
| 2026-04-26 11:08 | 51.31758 | -16.45521 | 36278 ft | 449 kts | 290° |
| 2026-04-26 11:09 | 51.33746 | -16.54980 | 36283 ft | 449 kts | 289° |
| 2026-04-26 11:09 | 51.35711 | -16.64375 | 36287 ft | 448 kts | 289° |
| 2026-04-26 11:10 | 51.37681 | -16.73834 | 36280 ft | 447 kts | 289° |
| 2026-04-26 11:10 | 51.39638 | -16.83282 | 36282 ft | 446 kts | 289° |
| 2026-04-26 11:11 | 51.41582 | -16.92707 | 36279 ft | 445 kts | 289° |
| 2026-04-26 11:11 | 51.43517 | -17.02132 | 36268 ft | 445 kts | 289° |
| 2026-04-26 11:12 | 51.45426 | -17.11479 | 36278 ft | 444 kts | 289° |
| 2026-04-26 11:12 | 51.47338 | -17.20883 | 36279 ft | 443 kts | 289° |
| 2026-04-26 11:13 | 51.49238 | -17.30274 | 36285 ft | 442 kts | 289° |
| 2026-04-26 11:13 | 51.51130 | -17.39665 | 36277 ft | 442 kts | 289° |
| 2026-04-26 11:14 | 51.53011 | -17.49055 | 36277 ft | 441 kts | 289° |
| 2026-04-26 11:14 | 51.54568 | -17.56858 | 36275 ft | 441 kts | 289° |
| 2026-04-26 11:15 | 51.56749 | -17.67839 | 36273 ft | 441 kts | 288° |
| 2026-04-26 11:15 | 51.58603 | -17.77227 | 36275 ft | 440 kts | 288° |
| 2026-04-26 11:16 | 51.60449 | -17.86617 | 36271 ft | 440 kts | 288° |
| 2026-04-26 11:16 | 51.62278 | -17.95966 | 36272 ft | 440 kts | 288° |
| 2026-04-26 11:17 | 51.64109 | -18.05372 | 36273 ft | 440 kts | 288° |
| 2026-04-26 11:17 | 51.65934 | -18.14794 | 36271 ft | 440 kts | 288° |
| 2026-04-26 11:18 | 51.67748 | -18.24206 | 36265 ft | 440 kts | 288° |
| 2026-04-26 11:18 | 51.69554 | -18.33621 | 36270 ft | 440 kts | 288° |
| 2026-04-26 11:19 | 51.71341 | -18.42984 | 36269 ft | 439 kts | 288° |
| 2026-04-26 11:19 | 51.73132 | -18.52419 | 36270 ft | 439 kts | 288° |
| 2026-04-26 11:20 | 51.74627 | -18.60325 | 36269 ft | 439 kts | 288° |
| 2026-04-26 11:20 | 51.76690 | -18.71295 | 36277 ft | 439 kts | 287° |
| 2026-04-26 11:21 | 51.78458 | -18.80746 | 36258 ft | 439 kts | 287° |
| 2026-04-26 11:21 | 51.80216 | -18.90194 | 36267 ft | 439 kts | 287° |
| 2026-04-26 11:22 | 51.81964 | -18.99634 | 36269 ft | 438 kts | 287° |
| 2026-04-26 11:22 | 51.83704 | -19.09078 | 36270 ft | 438 kts | 287° |
| 2026-04-26 11:23 | 51.85425 | -19.18471 | 36266 ft | 438 kts | 287° |
| 2026-04-26 11:23 | 51.87149 | -19.27923 | 36266 ft | 438 kts | 287° |
| 2026-04-26 11:24 | 51.88865 | -19.37383 | 36249 ft | 438 kts | 287° |
| 2026-04-26 11:24 | 51.90573 | -19.46849 | 36271 ft | 438 kts | 287° |
| 2026-04-26 11:25 | 51.92274 | -19.56322 | 36271 ft | 438 kts | 287° |
| 2026-04-26 11:25 | 51.93966 | -19.65801 | 36266 ft | 438 kts | 287° |
| 2026-04-26 11:26 | 51.95654 | -19.75300 | 36268 ft | 438 kts | 287° |
| 2026-04-26 11:26 | 51.97331 | -19.84793 | 36256 ft | 438 kts | 287° |
| 2026-04-26 11:27 | 51.98722 | -19.92696 | 36254 ft | 438 kts | 286° |
| 2026-04-26 11:27 | 52.00626 | -20.03771 | 36262 ft | 438 kts | 285° |
| 2026-04-26 11:28 | 52.02021 | -20.13399 | 36266 ft | 438 kts | 283° |
| 2026-04-26 11:28 | 52.03141 | -20.21502 | 36254 ft | 438 kts | 283° |
| 2026-04-26 11:29 | 52.04477 | -20.31085 | 36254 ft | 438 kts | 283° |
| 2026-04-26 11:29 | 52.05834 | -20.40713 | 36253 ft | 437 kts | 283° |
| 2026-04-26 11:30 | 52.07190 | -20.50337 | 36249 ft | 437 kts | 283° |
| 2026-04-26 11:30 | 52.08539 | -20.59960 | 36256 ft | 436 kts | 283° |
| 2026-04-26 11:31 | 52.09880 | -20.69583 | 36257 ft | 436 kts | 283° |
| 2026-04-26 11:31 | 52.11211 | -20.79211 | 36259 ft | 436 kts | 283° |
| 2026-04-26 11:32 | 52.12535 | -20.88847 | 36264 ft | 436 kts | 283° |
| 2026-04-26 11:32 | 52.13851 | -20.98487 | 36251 ft | 436 kts | 283° |
| 2026-04-26 11:33 | 52.15158 | -21.08128 | 36250 ft | 436 kts | 283° |
| 2026-04-26 11:33 | 52.16457 | -21.17766 | 36241 ft | 436 kts | 283° |
| 2026-04-26 11:34 | 52.17738 | -21.27342 | 36244 ft | 436 kts | 283° |
| 2026-04-26 11:34 | 52.19020 | -21.36986 | 36252 ft | 435 kts | 283° |
| 2026-04-26 11:35 | 52.20294 | -21.46636 | 36252 ft | 435 kts | 283° |
| 2026-04-26 11:35 | 52.21562 | -21.56298 | 36254 ft | 435 kts | 283° |
| 2026-04-26 11:36 | 52.22820 | -21.65960 | 36246 ft | 435 kts | 283° |
| 2026-04-26 11:36 | 52.24071 | -21.75629 | 36229 ft | 435 kts | 282° |
| 2026-04-26 11:37 | 52.25314 | -21.85299 | 36241 ft | 435 kts | 282° |
| 2026-04-26 11:37 | 52.26548 | -21.94972 | 36247 ft | 435 kts | 282° |
| 2026-04-26 11:38 | 52.27774 | -22.04649 | 36242 ft | 435 kts | 282° |
| 2026-04-26 11:38 | 52.28992 | -22.14332 | 36236 ft | 435 kts | 282° |
| 2026-04-26 11:39 | 52.30202 | -22.24019 | 36229 ft | 435 kts | 282° |
| 2026-04-26 11:39 | 52.31397 | -22.33652 | 36218 ft | 435 kts | 282° |
| 2026-04-26 11:40 | 52.32593 | -22.43357 | 36232 ft | 435 kts | 281° |
| 2026-04-26 11:40 | 52.33781 | -22.53073 | 36233 ft | 436 kts | 281° |
| 2026-04-26 11:42 | 52.38450 | -22.91962 | 36219 ft | 435 kts | 281° |
| 2026-04-26 11:43 | 52.39596 | -23.01689 | 36225 ft | 435 kts | 280° |
| 2026-04-26 11:43 | 52.40735 | -23.11422 | 36229 ft | 435 kts | 280° |
| 2026-04-26 11:44 | 52.41857 | -23.21085 | 36228 ft | 435 kts | 280° |
| 2026-04-26 11:44 | 52.42979 | -23.30827 | 36235 ft | 435 kts | 280° |
| 2026-04-26 11:45 | 52.44093 | -23.40568 | 36210 ft | 435 kts | 280° |
| 2026-04-26 11:45 | 52.45199 | -23.50321 | 36212 ft | 435 kts | 279° |
| 2026-04-26 11:46 | 52.46297 | -23.60066 | 36208 ft | 434 kts | 279° |
| 2026-04-26 11:46 | 52.47384 | -23.69801 | 36203 ft | 434 kts | 279° |
| 2026-04-26 11:47 | 52.48463 | -23.79535 | 36204 ft | 433 kts | 279° |
| 2026-04-26 11:47 | 52.49533 | -23.89264 | 36204 ft | 433 kts | 279° |
| 2026-04-26 11:48 | 52.50593 | -23.98981 | 36198 ft | 433 kts | 279° |
| 2026-04-26 11:48 | 52.51644 | -24.08702 | 36195 ft | 432 kts | 279° |
| 2026-04-26 11:49 | 52.52688 | -24.18421 | 36200 ft | 432 kts | 278° |
| 2026-04-26 11:49 | 52.53723 | -24.28139 | 36189 ft | 432 kts | 278° |
| 2026-04-26 11:50 | 52.54748 | -24.37847 | 36190 ft | 431 kts | 278° |
| 2026-04-26 11:50 | 52.55764 | -24.47550 | 36190 ft | 431 kts | 278° |
| 2026-04-26 11:51 | 52.56771 | -24.57246 | 36185 ft | 430 kts | 278° |
| 2026-04-26 11:51 | 52.57770 | -24.66947 | 36182 ft | 430 kts | 278° |
| 2026-04-26 11:52 | 52.58594 | -24.75006 | 36185 ft | 430 kts | 277° |
| 2026-04-26 11:52 | 52.59742 | -24.86334 | 36180 ft | 429 kts | 277° |
| 2026-04-26 11:53 | 52.60715 | -24.96022 | 36188 ft | 429 kts | 277° |
| 2026-04-26 11:54 | 52.62161 | -25.10578 | 36170 ft | 430 kts | 277° |
| 2026-04-26 11:54 | 52.63108 | -25.20218 | 36172 ft | 430 kts | 277° |
| 2026-04-26 11:55 | 52.64055 | -25.29934 | 36162 ft | 430 kts | 277° |
| 2026-04-26 11:55 | 52.64993 | -25.39654 | 36161 ft | 430 kts | 276° |
| 2026-04-26 11:56 | 52.65924 | -25.49380 | 36153 ft | 430 kts | 276° |
| 2026-04-26 11:56 | 52.66847 | -25.59119 | 36150 ft | 430 kts | 276° |
| 2026-04-26 11:57 | 52.67762 | -25.68847 | 36152 ft | 430 kts | 276° |
| 2026-04-26 11:57 | 52.68669 | -25.78590 | 36150 ft | 430 kts | 276° |
| 2026-04-26 11:58 | 52.69568 | -25.88342 | 36143 ft | 431 kts | 276° |
| 2026-04-26 11:58 | 52.70461 | -25.98102 | 36134 ft | 431 kts | 276° |
| 2026-04-26 11:59 | 52.71340 | -26.07813 | 36134 ft | 431 kts | 276° |
| 2026-04-26 11:59 | 52.72217 | -26.17598 | 36134 ft | 432 kts | 276° |
| 2026-04-26 12:00 | 52.73088 | -26.27397 | 36128 ft | 432 kts | 276° |
| 2026-04-26 12:00 | 52.73950 | -26.37201 | 36132 ft | 432 kts | 276° |
| 2026-04-26 12:01 | 52.74806 | -26.47024 | 36118 ft | 432 kts | 276° |
| 2026-04-26 12:01 | 52.75653 | -26.56846 | 36136 ft | 432 kts | 276° |
| 2026-04-26 12:02 | 52.76492 | -26.66670 | 36118 ft | 432 kts | 275° |
| 2026-04-26 12:02 | 52.77323 | -26.76496 | 36105 ft | 432 kts | 275° |
| 2026-04-26 12:03 | 52.78143 | -26.86303 | 36104 ft | 431 kts | 275° |
| 2026-04-26 12:03 | 52.78955 | -26.96101 | 36096 ft | 430 kts | 275° |
| 2026-04-26 12:04 | 52.79758 | -27.05895 | 36097 ft | 430 kts | 275° |
| 2026-04-26 12:04 | 52.80551 | -27.15674 | 36098 ft | 429 kts | 275° |
| 2026-04-26 12:05 | 52.81336 | -27.25452 | 36085 ft | 429 kts | 275° |
| 2026-04-26 12:05 | 52.82113 | -27.35241 | 36089 ft | 430 kts | 275° |
| 2026-04-26 12:06 | 52.82883 | -27.45050 | 36077 ft | 430 kts | 275° |
| 2026-04-26 12:06 | 52.83646 | -27.54873 | 36078 ft | 431 kts | 274° |
| 2026-04-26 12:07 | 52.84398 | -27.64654 | 36069 ft | 432 kts | 274° |
| 2026-04-26 12:07 | 52.85147 | -27.74508 | 36069 ft | 432 kts | 274° |
| 2026-04-26 12:08 | 52.85889 | -27.84380 | 36069 ft | 432 kts | 274° |
| 2026-04-26 12:08 | 52.86623 | -27.94262 | 36060 ft | 433 kts | 274° |
| 2026-04-26 12:09 | 52.87350 | -28.04153 | 36057 ft | 433 kts | 274° |
| 2026-04-26 12:09 | 52.88068 | -28.14052 | 36057 ft | 433 kts | 274° |
| 2026-04-26 12:10 | 52.88778 | -28.23948 | 36060 ft | 433 kts | 274° |
| 2026-04-26 12:10 | 52.89480 | -28.33853 | 36044 ft | 433 kts | 274° |
| 2026-04-26 12:11 | 52.90174 | -28.43755 | 36051 ft | 432 kts | 273° |
| 2026-04-26 12:11 | 52.90858 | -28.53646 | 36038 ft | 432 kts | 273° |
| 2026-04-26 12:12 | 52.91534 | -28.63540 | 36027 ft | 432 kts | 273° |
| 2026-04-26 12:12 | 52.92200 | -28.73422 | 36016 ft | 432 kts | 272° |
| 2026-04-26 12:13 | 52.92859 | -28.83311 | 36016 ft | 431 kts | 272° |
| 2026-04-26 12:13 | 52.93504 | -28.93122 | 35997 ft | 431 kts | 272° |
| 2026-04-26 12:14 | 52.94145 | -29.03000 | 36008 ft | 432 kts | 272° |
| 2026-04-26 12:14 | 52.94781 | -29.12898 | 36011 ft | 432 kts | 271° |
| 2026-04-26 12:15 | 52.95406 | -29.22803 | 35993 ft | 432 kts | 271° |
| 2026-04-26 12:15 | 52.96023 | -29.32700 | 35988 ft | 431 kts | 271° |
| 2026-04-26 12:16 | 52.96632 | -29.42591 | 35981 ft | 431 kts | 271° |
| 2026-04-26 12:16 | 52.97233 | -29.52491 | 35989 ft | 431 kts | 271° |
| 2026-04-26 12:17 | 52.97826 | -29.62410 | 35971 ft | 433 kts | 271° |
| 2026-04-26 12:17 | 52.98414 | -29.72356 | 35964 ft | 433 kts | 270° |
| 2026-04-26 12:18 | 52.98991 | -29.82290 | 35965 ft | 432 kts | 270° |
| 2026-04-26 12:18 | 52.99560 | -29.92209 | 35981 ft | 432 kts | 270° |
| 2026-04-26 12:19 | 53.00026 | -30.00456 | 35955 ft | 432 kts | 270° |
| 2026-04-26 12:19 | 53.00475 | -30.10380 | 35949 ft | 431 kts | 268° |
| 2026-04-26 12:20 | 53.00856 | -30.20292 | 35944 ft | 430 kts | 268° |
| 2026-04-26 12:20 | 53.01235 | -30.30202 | 35964 ft | 430 kts | 268° |
| 2026-04-26 12:21 | 53.01617 | -30.40128 | 35940 ft | 430 kts | 268° |
| 2026-04-26 12:21 | 53.01995 | -30.50045 | 35926 ft | 430 kts | 268° |
| 2026-04-26 12:22 | 53.02364 | -30.59890 | 35932 ft | 430 kts | 268° |
| 2026-04-26 12:22 | 53.02726 | -30.69794 | 35916 ft | 430 kts | 268° |
| 2026-04-26 12:23 | 53.03081 | -30.79696 | 35945 ft | 430 kts | 267° |
| 2026-04-26 12:23 | 53.03427 | -30.89635 | 35918 ft | 432 kts | 267° |
| 2026-04-26 12:24 | 53.03766 | -30.99597 | 35892 ft | 432 kts | 266° |
| 2026-04-26 12:24 | 53.04097 | -31.09530 | 35897 ft | 429 kts | 266° |
| 2026-04-26 12:25 | 53.04574 | -31.24346 | 35894 ft | 427 kts | 266° |
| 2026-04-26 12:25 | 53.04881 | -31.34200 | 35874 ft | 427 kts | 266° |
| 2026-04-26 12:26 | 53.05178 | -31.44027 | 35886 ft | 425 kts | 266° |
| 2026-04-26 12:26 | 53.05467 | -31.53842 | 35914 ft | 425 kts | 265° |
| 2026-04-26 12:27 | 53.05747 | -31.63660 | 35888 ft | 425 kts | 265° |
| 2026-04-26 12:27 | 53.06019 | -31.73424 | 35877 ft | 427 kts | 265° |
| 2026-04-26 12:28 | 53.06285 | -31.83290 | 35883 ft | 427 kts | 265° |
| 2026-04-26 12:28 | 53.06543 | -31.93160 | 35867 ft | 428 kts | 265° |
| 2026-04-26 12:29 | 53.06793 | -32.03043 | 35870 ft | 428 kts | 265° |
| 2026-04-26 12:30 | 53.07154 | -32.17889 | 35899 ft | 428 kts | 264° |
| 2026-04-26 12:30 | 53.07385 | -32.27800 | 35867 ft | 429 kts | 264° |
| 2026-04-26 12:31 | 53.07715 | -32.42661 | 35861 ft | 428 kts | 264° |
| 2026-04-26 12:31 | 53.07925 | -32.52557 | 35859 ft | 428 kts | 264° |
| 2026-04-26 12:32 | 53.08126 | -32.62462 | 35865 ft | 429 kts | 264° |
| 2026-04-26 12:33 | 53.08413 | -32.77314 | 35848 ft | 428 kts | 264° |
| 2026-04-26 12:33 | 53.08594 | -32.87201 | 35852 ft | 427 kts | 264° |
| 2026-04-26 12:34 | 53.08766 | -32.97078 | 35852 ft | 427 kts | 264° |
| 2026-04-26 12:34 | 53.08928 | -33.06876 | 35848 ft | 427 kts | 263° |
| 2026-04-26 12:35 | 53.09084 | -33.16739 | 35842 ft | 426 kts | 263° |
| 2026-04-26 12:35 | 53.09231 | -33.26593 | 35844 ft | 426 kts | 263° |
| 2026-04-26 12:36 | 53.09370 | -33.36446 | 35846 ft | 426 kts | 263° |
| 2026-04-26 12:36 | 53.09501 | -33.46289 | 35866 ft | 425 kts | 262° |
| 2026-04-26 12:37 | 53.09625 | -33.56086 | 35829 ft | 422 kts | 262° |
| 2026-04-26 12:37 | 53.09741 | -33.65806 | 35985 ft | 418 kts | 262° |
| 2026-04-26 12:37 | 53.09794 | -33.70626 | 36230 ft | 416 kts | 262° |
| 2026-04-26 12:38 | 53.09845 | -33.75432 | 36469 ft | 415 kts | 262° |
| 2026-04-26 12:38 | 53.09894 | -33.80239 | 36715 ft | 414 kts | 262° |
| 2026-04-26 12:38 | 53.09940 | -33.84966 | 36962 ft | 414 kts | 262° |
| 2026-04-26 12:38 | 53.09984 | -33.89749 | 37191 ft | 413 kts | 262° |
| 2026-04-26 12:39 | 53.10027 | -33.94527 | 37395 ft | 413 kts | 262° |
| 2026-04-26 12:39 | 53.10067 | -33.99304 | 37601 ft | 413 kts | 262° |
| 2026-04-26 12:39 | 53.10106 | -34.04089 | 37767 ft | 415 kts | 262° |
| 2026-04-26 12:40 | 53.10175 | -34.13761 | 37822 ft | 422 kts | 262° |
| 2026-04-26 12:40 | 53.10238 | -34.23607 | 37820 ft | 429 kts | 262° |
| 2026-04-26 12:41 | 53.10298 | -34.33625 | 37853 ft | 436 kts | 263° |
| 2026-04-26 12:41 | 53.10350 | -34.43797 | 37817 ft | 443 kts | 263° |
| 2026-04-26 12:42 | 53.10396 | -34.54038 | 37805 ft | 448 kts | 263° |
| 2026-04-26 12:42 | 53.10433 | -34.64438 | 37829 ft | 451 kts | 263° |
| 2026-04-26 12:43 | 53.10482 | -34.74812 | 37796 ft | 445 kts | 263° |
| 2026-04-26 12:43 | 53.10541 | -34.85097 | 37796 ft | 444 kts | 262° |
| 2026-04-26 12:44 | 53.10532 | -34.95376 | 37786 ft | 444 kts | 262° |
| 2026-04-26 12:44 | 53.10502 | -35.05605 | 37786 ft | 444 kts | 262° |
| 2026-04-26 12:45 | 53.10481 | -35.15885 | 37781 ft | 444 kts | 262° |
| 2026-04-26 12:45 | 53.10461 | -35.26180 | 37806 ft | 445 kts | 262° |
| 2026-04-26 12:46 | 53.10434 | -35.36511 | 37778 ft | 447 kts | 262° |
| 2026-04-26 12:46 | 53.10398 | -35.46873 | 37769 ft | 448 kts | 262° |
| 2026-04-26 12:47 | 53.10353 | -35.57257 | 37761 ft | 449 kts | 262° |
| 2026-04-26 12:47 | 53.10299 | -35.67614 | 37760 ft | 452 kts | 262° |
| 2026-04-26 12:48 | 53.10235 | -35.78077 | 37758 ft | 452 kts | 262° |
| 2026-04-26 12:48 | 53.10163 | -35.88539 | 37783 ft | 452 kts | 262° |
| 2026-04-26 12:49 | 53.10081 | -35.99027 | 37751 ft | 454 kts | 262° |
| 2026-04-26 12:49 | 53.09989 | -36.09535 | 37751 ft | 454 kts | 262° |
| 2026-04-26 12:50 | 53.09888 | -36.20042 | 37742 ft | 455 kts | 262° |
| 2026-04-26 12:50 | 53.09777 | -36.30574 | 37733 ft | 455 kts | 262° |
| 2026-04-26 12:51 | 53.09657 | -36.41098 | 37728 ft | 455 kts | 262° |
| 2026-04-26 12:51 | 53.09529 | -36.51556 | 37754 ft | 455 kts | 262° |
| 2026-04-26 12:52 | 53.09390 | -36.62106 | 37735 ft | 457 kts | 262° |
| 2026-04-26 12:52 | 53.09241 | -36.72671 | 37722 ft | 457 kts | 262° |
| 2026-04-26 12:53 | 53.09084 | -36.83256 | 37723 ft | 458 kts | 262° |
| 2026-04-26 12:53 | 53.08916 | -36.93852 | 37713 ft | 458 kts | 262° |
| 2026-04-26 12:54 | 53.08738 | -37.04471 | 37720 ft | 460 kts | 262° |
| 2026-04-26 12:54 | 53.08550 | -37.15125 | 37720 ft | 462 kts | 262° |
| 2026-04-26 12:55 | 53.08352 | -37.25835 | 37707 ft | 464 kts | 262° |
| 2026-04-26 12:55 | 53.08144 | -37.36578 | 37699 ft | 465 kts | 262° |
| 2026-04-26 12:56 | 53.07926 | -37.47344 | 37691 ft | 466 kts | 262° |
| 2026-04-26 12:56 | 53.07698 | -37.58129 | 37690 ft | 467 kts | 262° |
| 2026-04-26 12:57 | 53.07459 | -37.68920 | 37686 ft | 467 kts | 262° |
| 2026-04-26 12:57 | 53.07212 | -37.79646 | 37685 ft | 467 kts | 262° |
| 2026-04-26 12:58 | 53.06821 | -37.95866 | 37675 ft | 469 kts | 263° |
| 2026-04-26 12:58 | 53.06547 | -38.06699 | 37665 ft | 469 kts | 262° |
| 2026-04-26 12:59 | 53.06263 | -38.17544 | 37650 ft | 470 kts | 262° |
| 2026-04-26 12:59 | 53.05969 | -38.28387 | 37657 ft | 470 kts | 262° |
| 2026-04-26 13:00 | 53.05666 | -38.39236 | 37673 ft | 470 kts | 262° |
| 2026-04-26 13:00 | 53.05351 | -38.50091 | 37650 ft | 470 kts | 262° |
| 2026-04-26 13:01 | 53.05027 | -38.60949 | 37640 ft | 470 kts | 262° |
| 2026-04-26 13:01 | 53.04694 | -38.71804 | 37636 ft | 470 kts | 262° |
| 2026-04-26 13:02 | 53.04349 | -38.82666 | 37637 ft | 471 kts | 263° |
| 2026-04-26 13:02 | 53.03995 | -38.93539 | 37629 ft | 472 kts | 263° |
| 2026-04-26 13:03 | 53.03631 | -39.04427 | 37630 ft | 472 kts | 263° |
| 2026-04-26 13:03 | 53.03255 | -39.15324 | 37618 ft | 473 kts | 262° |
| 2026-04-26 13:04 | 53.02870 | -39.26220 | 37619 ft | 473 kts | 262° |
| 2026-04-26 13:04 | 53.02477 | -39.37058 | 37610 ft | 473 kts | 262° |
| 2026-04-26 13:05 | 53.02072 | -39.47963 | 37604 ft | 473 kts | 262° |
| 2026-04-26 13:05 | 53.01656 | -39.58870 | 37605 ft | 473 kts | 262° |
| 2026-04-26 13:06 | 53.01229 | -39.69795 | 37601 ft | 475 kts | 263° |
| 2026-04-26 13:06 | 53.00792 | -39.80747 | 37599 ft | 476 kts | 262° |
| 2026-04-26 13:07 | 53.00346 | -39.91708 | 37586 ft | 476 kts | 262° |
| 2026-04-26 13:07 | 52.99878 | -40.02693 | 37585 ft | 477 kts | 262° |
| 2026-04-26 13:08 | 52.99272 | -40.13648 | 37577 ft | 477 kts | 261° |
| 2026-04-26 13:08 | 52.98608 | -40.24602 | 37586 ft | 477 kts | 261° |
| 2026-04-26 13:09 | 52.97946 | -40.35567 | 37567 ft | 478 kts | 261° |
| 2026-04-26 13:09 | 52.97286 | -40.46542 | 37564 ft | 477 kts | 261° |
| 2026-04-26 13:10 | 52.96623 | -40.57491 | 37562 ft | 477 kts | 261° |
| 2026-04-26 13:10 | 52.95950 | -40.68443 | 37552 ft | 477 kts | 260° |
| 2026-04-26 13:11 | 52.95266 | -40.79393 | 37552 ft | 478 kts | 260° |
| 2026-04-26 13:11 | 52.94570 | -40.90355 | 37553 ft | 478 kts | 260° |
| 2026-04-26 13:12 | 52.93863 | -41.01326 | 37547 ft | 479 kts | 260° |
| 2026-04-26 13:12 | 52.93268 | -41.10451 | 37532 ft | 479 kts | 260° |
| 2026-04-26 13:13 | 52.92541 | -41.21440 | 37529 ft | 480 kts | 260° |
| 2026-04-26 13:13 | 52.91805 | -41.32424 | 37521 ft | 480 kts | 260° |
| 2026-04-26 13:14 | 52.91057 | -41.43413 | 37538 ft | 480 kts | 260° |
| 2026-04-26 13:14 | 52.90297 | -41.54423 | 37532 ft | 481 kts | 261° |
| 2026-04-26 13:15 | 52.89527 | -41.65448 | 37519 ft | 482 kts | 261° |
| 2026-04-26 13:15 | 52.88744 | -41.76494 | 37515 ft | 483 kts | 261° |
| 2026-04-26 13:16 | 52.87950 | -41.87549 | 37511 ft | 484 kts | 260° |
| 2026-04-26 13:16 | 52.87145 | -41.98613 | 37510 ft | 484 kts | 260° |
| 2026-04-26 13:17 | 52.85915 | -42.15237 | 37508 ft | 485 kts | 260° |
| 2026-04-26 13:18 | 52.84661 | -42.31867 | 37499 ft | 486 kts | 260° |
| 2026-04-26 13:19 | 52.83382 | -42.48512 | 37495 ft | 487 kts | 260° |
| 2026-04-26 13:19 | 52.82514 | -42.59631 | 37494 ft | 488 kts | 260° |
| 2026-04-26 13:20 | 52.81635 | -42.70757 | 37498 ft | 489 kts | 260° |
| 2026-04-26 13:20 | 52.80744 | -42.81896 | 37489 ft | 489 kts | 260° |
| 2026-04-26 13:21 | 52.79842 | -42.93038 | 37486 ft | 489 kts | 260° |
| 2026-04-26 13:21 | 52.78929 | -43.04181 | 37487 ft | 489 kts | 260° |
| 2026-04-26 13:22 | 52.78011 | -43.15248 | 37489 ft | 490 kts | 260° |
| 2026-04-26 13:22 | 52.77077 | -43.26384 | 37493 ft | 490 kts | 260° |
| 2026-04-26 13:23 | 52.76130 | -43.37541 | 37476 ft | 491 kts | 260° |
| 2026-04-26 13:23 | 52.75172 | -43.48704 | 37479 ft | 491 kts | 260° |
| 2026-04-26 13:24 | 52.74203 | -43.59875 | 37477 ft | 492 kts | 260° |
| 2026-04-26 13:24 | 52.73222 | -43.71057 | 37474 ft | 493 kts | 260° |
| 2026-04-26 13:25 | 52.72228 | -43.82248 | 37477 ft | 493 kts | 260° |
| 2026-04-26 13:25 | 52.71223 | -43.93444 | 37471 ft | 494 kts | 260° |
| 2026-04-26 13:26 | 52.70207 | -44.04647 | 37472 ft | 494 kts | 260° |
| 2026-04-26 13:26 | 52.69180 | -44.15849 | 37471 ft | 494 kts | 260° |
| 2026-04-26 13:27 | 52.68141 | -44.27054 | 37470 ft | 495 kts | 260° |
| 2026-04-26 13:27 | 52.67090 | -44.38271 | 37477 ft | 495 kts | 260° |
| 2026-04-26 13:28 | 52.66027 | -44.49496 | 37466 ft | 496 kts | 260° |
| 2026-04-26 13:28 | 52.64953 | -44.60733 | 37471 ft | 497 kts | 260° |
| 2026-04-26 13:29 | 52.63866 | -44.71974 | 37468 ft | 497 kts | 260° |
| 2026-04-26 13:29 | 52.62768 | -44.83224 | 37468 ft | 498 kts | 260° |
| 2026-04-26 13:30 | 52.61658 | -44.94472 | 37466 ft | 498 kts | 260° |
| 2026-04-26 13:30 | 52.60538 | -45.05714 | 37470 ft | 498 kts | 260° |
| 2026-04-26 13:31 | 52.59407 | -45.16953 | 37471 ft | 498 kts | 259° |
| 2026-04-26 13:31 | 52.58265 | -45.28181 | 37466 ft | 498 kts | 259° |
| 2026-04-26 13:32 | 52.57114 | -45.39400 | 37463 ft | 497 kts | 259° |
| 2026-04-26 13:32 | 52.55953 | -45.50604 | 37464 ft | 497 kts | 259° |
| 2026-04-26 13:33 | 52.54781 | -45.61801 | 37471 ft | 497 kts | 259° |
| 2026-04-26 13:33 | 52.53598 | -45.72994 | 37468 ft | 497 kts | 259° |
| 2026-04-26 13:34 | 52.52406 | -45.84180 | 37472 ft | 497 kts | 259° |
| 2026-04-26 13:34 | 52.51210 | -45.95287 | 37458 ft | 498 kts | 259° |
| 2026-04-26 13:35 | 52.49994 | -46.06479 | 37470 ft | 498 kts | 259° |
| 2026-04-26 13:35 | 52.48767 | -46.17672 | 37474 ft | 499 kts | 259° |
| 2026-04-26 13:36 | 52.47526 | -46.28889 | 37475 ft | 500 kts | 259° |
| 2026-04-26 13:36 | 52.46271 | -46.40127 | 37473 ft | 501 kts | 259° |
| 2026-04-26 13:37 | 52.45004 | -46.51377 | 37472 ft | 502 kts | 259° |
| 2026-04-26 13:37 | 52.43724 | -46.62632 | 37473 ft | 503 kts | 259° |
| 2026-04-26 13:38 | 52.42433 | -46.73892 | 37477 ft | 503 kts | 259° |
| 2026-04-26 13:38 | 52.41129 | -46.85153 | 37460 ft | 503 kts | 259° |
| 2026-04-26 13:39 | 52.39815 | -46.96415 | 37480 ft | 504 kts | 259° |
| 2026-04-26 13:39 | 52.38488 | -47.07682 | 37479 ft | 504 kts | 259° |
| 2026-04-26 13:40 | 52.37148 | -47.18963 | 37481 ft | 505 kts | 259° |
| 2026-04-26 13:40 | 52.35797 | -47.30239 | 37489 ft | 505 kts | 259° |
| 2026-04-26 13:41 | 52.34435 | -47.41514 | 37488 ft | 506 kts | 259° |
| 2026-04-26 13:41 | 52.33061 | -47.52790 | 37488 ft | 506 kts | 259° |
| 2026-04-26 13:42 | 52.31676 | -47.64060 | 37490 ft | 506 kts | 259° |
| 2026-04-26 13:42 | 52.30279 | -47.75329 | 37480 ft | 506 kts | 259° |
| 2026-04-26 13:43 | 52.28872 | -47.86597 | 37501 ft | 506 kts | 259° |
| 2026-04-26 13:43 | 52.27453 | -47.97861 | 37495 ft | 507 kts | 259° |
| 2026-04-26 13:44 | 52.26022 | -48.09125 | 37507 ft | 507 kts | 258° |
| 2026-04-26 13:44 | 52.24581 | -48.20384 | 37506 ft | 507 kts | 258° |
| 2026-04-26 13:45 | 52.23137 | -48.31571 | 37500 ft | 507 kts | 258° |
| 2026-04-26 13:45 | 52.21672 | -48.42828 | 37511 ft | 507 kts | 258° |
| 2026-04-26 13:46 | 52.20198 | -48.54071 | 37513 ft | 507 kts | 258° |
| 2026-04-26 13:46 | 52.18712 | -48.65304 | 37506 ft | 507 kts | 258° |
| 2026-04-26 13:47 | 52.17218 | -48.76528 | 37527 ft | 507 kts | 258° |
| 2026-04-26 13:47 | 52.15709 | -48.87767 | 37528 ft | 509 kts | 258° |
| 2026-04-26 13:48 | 52.14186 | -48.99021 | 37514 ft | 509 kts | 258° |
| 2026-04-26 13:48 | 52.12654 | -49.10259 | 37529 ft | 508 kts | 258° |
| 2026-04-26 13:49 | 52.11112 | -49.21483 | 37541 ft | 508 kts | 258° |
| 2026-04-26 13:49 | 52.09570 | -49.32627 | 37542 ft | 509 kts | 258° |
| 2026-04-26 13:50 | 52.08004 | -49.43851 | 37513 ft | 509 kts | 258° |
| 2026-04-26 13:50 | 52.06429 | -49.55063 | 37540 ft | 508 kts | 258° |
| 2026-04-26 13:51 | 52.04845 | -49.66255 | 37547 ft | 508 kts | 258° |
| 2026-04-26 13:51 | 52.03251 | -49.77438 | 37562 ft | 508 kts | 258° |
| 2026-04-26 13:52 | 52.01647 | -49.88612 | 37559 ft | 508 kts | 258° |
| 2026-04-26 13:52 | 51.99992 | -49.99762 | 37569 ft | 509 kts | 255° |
| 2026-04-26 13:53 | 51.97586 | -50.10502 | 37567 ft | 510 kts | 249° |
| 2026-04-26 13:53 | 51.94937 | -50.21197 | 37579 ft | 512 kts | 249° |
| 2026-04-26 13:54 | 51.92296 | -50.31909 | 37581 ft | 512 kts | 250° |
| 2026-04-26 13:54 | 51.89672 | -50.42649 | 37572 ft | 513 kts | 250° |
| 2026-04-26 13:55 | 51.86169 | -50.56972 | 37585 ft | 515 kts | 250° |
| 2026-04-26 13:56 | 51.81735 | -50.74956 | 37602 ft | 517 kts | 250° |
| 2026-04-26 13:56 | 51.79058 | -50.85734 | 37598 ft | 517 kts | 250° |
| 2026-04-26 13:57 | 51.76368 | -50.96515 | 37604 ft | 518 kts | 250° |
| 2026-04-26 13:57 | 51.73683 | -51.07220 | 37622 ft | 519 kts | 250° |
| 2026-04-26 13:58 | 51.70966 | -51.18004 | 37615 ft | 518 kts | 250° |
| 2026-04-26 13:58 | 51.68243 | -51.28755 | 37623 ft | 518 kts | 249° |
| 2026-04-26 13:59 | 51.65514 | -51.39487 | 37616 ft | 517 kts | 249° |
| 2026-04-26 13:59 | 51.62776 | -51.50197 | 37628 ft | 517 kts | 249° |
| 2026-04-26 14:00 | 51.57267 | -51.71598 | 37654 ft | 519 kts | 249° |
| 2026-04-26 14:01 | 51.54503 | -51.82256 | 37646 ft | 521 kts | 249° |
| 2026-04-26 14:01 | 51.51705 | -51.92996 | 37657 ft | 522 kts | 249° |
| 2026-04-26 14:02 | 51.48896 | -52.03729 | 37667 ft | 521 kts | 249° |
| 2026-04-26 14:02 | 51.46078 | -52.14443 | 37662 ft | 521 kts | 249° |
| 2026-04-26 14:03 | 51.43252 | -52.25138 | 37675 ft | 521 kts | 249° |
| 2026-04-26 14:03 | 51.40419 | -52.35814 | 37683 ft | 521 kts | 249° |
| 2026-04-26 14:04 | 51.37575 | -52.46476 | 37681 ft | 520 kts | 249° |
| 2026-04-26 14:04 | 51.34726 | -52.57110 | 37698 ft | 519 kts | 249° |
| 2026-04-26 14:05 | 51.32353 | -52.65932 | 37698 ft | 519 kts | 249° |
| 2026-04-26 14:05 | 51.29492 | -52.76522 | 37715 ft | 519 kts | 249° |
| 2026-04-26 14:06 | 51.26617 | -52.87113 | 37715 ft | 519 kts | 249° |
| 2026-04-26 14:06 | 51.23735 | -52.97684 | 37722 ft | 519 kts | 249° |
| 2026-04-26 14:07 | 51.20844 | -53.08242 | 37718 ft | 519 kts | 249° |
| 2026-04-26 14:07 | 51.17946 | -53.18783 | 37737 ft | 519 kts | 249° |
| 2026-04-26 14:08 | 51.14983 | -53.29289 | 37742 ft | 520 kts | 247° |
| 2026-04-26 14:08 | 51.11845 | -53.39665 | 37742 ft | 520 kts | 246° |
| 2026-04-26 14:09 | 51.08667 | -53.50016 | 37751 ft | 521 kts | 246° |
| 2026-04-26 14:09 | 51.05502 | -53.60374 | 37755 ft | 521 kts | 246° |
| 2026-04-26 14:10 | 51.02343 | -53.70736 | 37768 ft | 521 kts | 246° |
| 2026-04-26 14:10 | 50.99175 | -53.81102 | 37769 ft | 522 kts | 246° |
| 2026-04-26 14:11 | 50.94395 | -53.96648 | 37800 ft | 523 kts | 246° |
| 2026-04-26 14:11 | 50.91211 | -54.06944 | 37797 ft | 524 kts | 246° |
| 2026-04-26 14:12 | 50.87992 | -54.17310 | 37802 ft | 525 kts | 246° |
| 2026-04-26 14:12 | 50.84761 | -54.27669 | 37801 ft | 525 kts | 246° |
| 2026-04-26 14:13 | 50.79895 | -54.43188 | 37822 ft | 525 kts | 246° |
| 2026-04-26 14:14 | 50.76639 | -54.53518 | 37832 ft | 525 kts | 246° |
| 2026-04-26 14:14 | 50.73373 | -54.63837 | 37835 ft | 525 kts | 246° |
| 2026-04-26 14:15 | 50.70100 | -54.74134 | 37829 ft | 525 kts | 246° |
| 2026-04-26 14:15 | 50.66819 | -54.84414 | 37853 ft | 525 kts | 246° |
| 2026-04-26 14:16 | 50.63528 | -54.94683 | 37862 ft | 525 kts | 246° |
| 2026-04-26 14:16 | 50.60230 | -55.04933 | 37849 ft | 525 kts | 246° |
| 2026-04-26 14:17 | 50.56923 | -55.15168 | 37859 ft | 525 kts | 245° |
| 2026-04-26 14:17 | 50.53606 | -55.25389 | 37856 ft | 525 kts | 245° |
| 2026-04-26 14:18 | 50.50282 | -55.35593 | 37860 ft | 525 kts | 245° |
| 2026-04-26 14:18 | 50.46949 | -55.45780 | 37863 ft | 525 kts | 245° |
| 2026-04-26 14:19 | 50.43629 | -55.55889 | 37867 ft | 525 kts | 245° |
| 2026-04-26 14:19 | 50.40277 | -55.66052 | 37848 ft | 525 kts | 245° |
| 2026-04-26 14:20 | 50.36916 | -55.76202 | 37876 ft | 525 kts | 245° |
| 2026-04-26 14:20 | 50.33544 | -55.86343 | 37885 ft | 525 kts | 245° |
| 2026-04-26 14:21 | 50.30158 | -55.96488 | 37885 ft | 526 kts | 245° |
| 2026-04-26 14:21 | 50.26760 | -56.06625 | 37895 ft | 527 kts | 245° |
| 2026-04-26 14:22 | 50.23350 | -56.16759 | 37902 ft | 527 kts | 245° |
| 2026-04-26 14:22 | 50.19929 | -56.26884 | 37904 ft | 527 kts | 245° |
| 2026-04-26 14:23 | 50.16494 | -56.37008 | 37899 ft | 527 kts | 244° |
| 2026-04-26 14:23 | 50.13055 | -56.47107 | 37917 ft | 527 kts | 244° |
| 2026-04-26 14:24 | 50.09610 | -56.57181 | 37912 ft | 527 kts | 244° |
| 2026-04-26 14:24 | 50.06154 | -56.67248 | 37911 ft | 527 kts | 244° |
| 2026-04-26 14:25 | 50.02699 | -56.77269 | 37917 ft | 525 kts | 244° |
| 2026-04-26 14:25 | 49.99241 | -56.87267 | 37919 ft | 525 kts | 244° |
| 2026-04-26 14:26 | 49.95775 | -56.97243 | 37928 ft | 524 kts | 244° |
| 2026-04-26 14:26 | 49.92303 | -57.07198 | 37934 ft | 524 kts | 243° |
| 2026-04-26 14:27 | 49.88852 | -57.17058 | 37928 ft | 523 kts | 243° |
| 2026-04-26 14:27 | 49.85377 | -57.26946 | 37936 ft | 522 kts | 243° |
| 2026-04-26 14:28 | 49.81900 | -57.36800 | 37954 ft | 521 kts | 243° |
| 2026-04-26 14:28 | 49.78418 | -57.46631 | 37960 ft | 520 kts | 243° |
| 2026-04-26 14:29 | 49.74934 | -57.56434 | 37955 ft | 519 kts | 243° |
| 2026-04-26 14:29 | 49.71450 | -57.66197 | 37951 ft | 518 kts | 243° |
| 2026-04-26 14:30 | 49.67963 | -57.75929 | 37971 ft | 517 kts | 243° |
| 2026-04-26 14:30 | 49.64473 | -57.85638 | 37986 ft | 517 kts | 243° |
| 2026-04-26 14:31 | 49.60973 | -57.95336 | 37986 ft | 517 kts | 243° |
| 2026-04-26 14:31 | 49.57472 | -58.04999 | 37983 ft | 516 kts | 243° |
| 2026-04-26 14:32 | 49.53965 | -58.14643 | 37999 ft | 515 kts | 243° |
| 2026-04-26 14:32 | 49.50482 | -58.24186 | 38007 ft | 515 kts | 243° |
| 2026-04-26 14:33 | 49.46967 | -58.33783 | 37993 ft | 514 kts | 243° |
| 2026-04-26 14:33 | 49.43453 | -58.43343 | 38005 ft | 513 kts | 243° |
| 2026-04-26 14:34 | 49.39931 | -58.52888 | 38026 ft | 513 kts | 243° |
| 2026-04-26 14:34 | 49.36405 | -58.62408 | 38024 ft | 513 kts | 243° |
| 2026-04-26 14:35 | 49.32873 | -58.71908 | 38043 ft | 512 kts | 243° |
| 2026-04-26 14:35 | 49.29335 | -58.81391 | 38039 ft | 513 kts | 243° |
| 2026-04-26 14:36 | 49.25789 | -58.90862 | 38044 ft | 513 kts | 243° |
| 2026-04-26 14:36 | 49.22233 | -59.00325 | 38058 ft | 513 kts | 243° |
| 2026-04-26 14:37 | 49.18667 | -59.09781 | 38056 ft | 513 kts | 242° |
| 2026-04-26 14:37 | 49.15092 | -59.19226 | 38058 ft | 514 kts | 242° |
| 2026-04-26 14:38 | 49.11525 | -59.28616 | 38073 ft | 514 kts | 242° |
| 2026-04-26 14:38 | 49.07931 | -59.38042 | 38074 ft | 514 kts | 242° |
| 2026-04-26 14:39 | 49.04332 | -59.47450 | 38063 ft | 514 kts | 242° |
| 2026-04-26 14:39 | 49.00726 | -59.56839 | 38073 ft | 513 kts | 242° |
| 2026-04-26 14:40 | 48.97112 | -59.66219 | 38074 ft | 513 kts | 242° |
| 2026-04-26 14:40 | 48.93494 | -59.75576 | 38081 ft | 513 kts | 242° |
| 2026-04-26 14:41 | 48.89866 | -59.84922 | 38083 ft | 513 kts | 242° |
| 2026-04-26 14:41 | 48.86235 | -59.94248 | 38081 ft | 513 kts | 242° |
| 2026-04-26 14:42 | 48.82598 | -60.03555 | 38093 ft | 512 kts | 242° |
| 2026-04-26 14:42 | 48.78955 | -60.12842 | 38095 ft | 512 kts | 242° |
| 2026-04-26 14:43 | 48.75308 | -60.22108 | 38084 ft | 511 kts | 242° |
| 2026-04-26 14:43 | 48.71658 | -60.31350 | 38094 ft | 511 kts | 242° |
| 2026-04-26 14:44 | 48.68007 | -60.40563 | 38106 ft | 510 kts | 242° |
| 2026-04-26 14:44 | 48.64347 | -60.49769 | 38104 ft | 510 kts | 242° |
| 2026-04-26 14:45 | 48.60684 | -60.58946 | 38116 ft | 510 kts | 242° |
| 2026-04-26 14:45 | 48.57015 | -60.68108 | 38107 ft | 510 kts | 242° |
| 2026-04-26 14:46 | 48.53332 | -60.77275 | 38118 ft | 510 kts | 242° |
| 2026-04-26 14:46 | 48.49644 | -60.86424 | 38117 ft | 511 kts | 241° |
| 2026-04-26 14:47 | 48.45969 | -60.95508 | 38119 ft | 511 kts | 241° |
| 2026-04-26 14:47 | 48.42260 | -61.04644 | 38123 ft | 511 kts | 241° |
| 2026-04-26 14:48 | 48.38543 | -61.13768 | 38128 ft | 511 kts | 241° |
| 2026-04-26 14:48 | 48.34820 | -61.22880 | 38129 ft | 512 kts | 241° |
| 2026-04-26 14:49 | 48.31084 | -61.31989 | 38126 ft | 512 kts | 241° |
| 2026-04-26 14:49 | 48.27339 | -61.41091 | 38130 ft | 512 kts | 241° |
| 2026-04-26 14:50 | 48.23581 | -61.50193 | 38129 ft | 513 kts | 241° |
| 2026-04-26 14:50 | 48.19806 | -61.59305 | 38138 ft | 515 kts | 240° |
| 2026-04-26 14:51 | 48.16039 | -61.68365 | 38133 ft | 516 kts | 240° |
| 2026-04-26 14:51 | 48.12231 | -61.77494 | 38138 ft | 517 kts | 240° |
| 2026-04-26 14:52 | 48.08412 | -61.86620 | 38142 ft | 518 kts | 240° |
| 2026-04-26 14:52 | 48.04584 | -61.95737 | 38112 ft | 518 kts | 240° |
| 2026-04-26 14:53 | 48.00783 | -62.04752 | 38130 ft | 507 kts | 240° |
| 2026-04-26 14:53 | 47.97036 | -62.13615 | 38152 ft | 504 kts | 240° |
| 2026-04-26 14:54 | 47.93287 | -62.22460 | 38146 ft | 505 kts | 240° |
| 2026-04-26 14:54 | 47.89527 | -62.31300 | 38122 ft | 505 kts | 239° |
| 2026-04-26 14:55 | 47.85768 | -62.40107 | 38147 ft | 503 kts | 239° |
| 2026-04-26 14:55 | 47.82009 | -62.48882 | 38154 ft | 502 kts | 239° |
| 2026-04-26 14:56 | 47.78251 | -62.57630 | 38157 ft | 501 kts | 239° |
| 2026-04-26 14:56 | 47.74516 | -62.66295 | 38157 ft | 501 kts | 239° |
| 2026-04-26 14:57 | 47.70754 | -62.74995 | 38158 ft | 500 kts | 239° |
| 2026-04-26 14:57 | 47.67599 | -62.82271 | 38163 ft | 500 kts | 239° |
| 2026-04-26 14:58 | 47.63827 | -62.90944 | 38164 ft | 500 kts | 239° |
| 2026-04-26 14:58 | 47.60046 | -62.99609 | 38149 ft | 500 kts | 239° |
| 2026-04-26 14:59 | 47.56267 | -63.08243 | 38165 ft | 499 kts | 239° |
| 2026-04-26 14:59 | 47.52489 | -63.16846 | 38138 ft | 498 kts | 239° |
| 2026-04-26 15:00 | 47.48716 | -63.25413 | 38160 ft | 496 kts | 238° |
| 2026-04-26 15:00 | 47.44965 | -63.33899 | 38168 ft | 496 kts | 239° |
| 2026-04-26 15:01 | 47.41190 | -63.42420 | 38170 ft | 496 kts | 239° |
| 2026-04-26 15:01 | 47.37410 | -63.50924 | 38167 ft | 496 kts | 239° |
| 2026-04-26 15:02 | 47.33622 | -63.59419 | 38164 ft | 496 kts | 238° |
| 2026-04-26 15:02 | 47.29829 | -63.67899 | 38161 ft | 496 kts | 238° |
| 2026-04-26 15:03 | 47.26025 | -63.76375 | 38164 ft | 496 kts | 238° |
| 2026-04-26 15:03 | 47.22212 | -63.84847 | 38173 ft | 497 kts | 238° |
| 2026-04-26 15:04 | 47.18388 | -63.93317 | 38180 ft | 497 kts | 238° |
| 2026-04-26 15:04 | 47.14554 | -64.01783 | 38177 ft | 498 kts | 238° |
| 2026-04-26 15:05 | 47.10709 | -64.10247 | 38194 ft | 498 kts | 238° |
| 2026-04-26 15:05 | 47.06858 | -64.18699 | 38197 ft | 498 kts | 238° |
| 2026-04-26 15:06 | 47.02997 | -64.27146 | 38195 ft | 498 kts | 238° |
| 2026-04-26 15:06 | 46.99131 | -64.35578 | 38192 ft | 498 kts | 238° |
| 2026-04-26 15:07 | 46.93365 | -64.48107 | 38191 ft | 496 kts | 238° |
| 2026-04-26 15:07 | 46.89504 | -64.56465 | 38188 ft | 495 kts | 238° |
| 2026-04-26 15:08 | 46.85646 | -64.64792 | 38198 ft | 494 kts | 237° |
| 2026-04-26 15:08 | 46.81804 | -64.73058 | 38175 ft | 490 kts | 237° |
| 2026-04-26 15:09 | 46.77988 | -64.81245 | 38179 ft | 486 kts | 237° |
| 2026-04-26 15:09 | 46.74197 | -64.89355 | 38185 ft | 482 kts | 237° |
| 2026-04-26 15:10 | 46.71032 | -64.96107 | 38171 ft | 481 kts | 237° |
| 2026-04-26 15:10 | 46.66653 | -65.05422 | 38177 ft | 479 kts | 237° |
| 2026-04-26 15:11 | 46.62885 | -65.13415 | 38174 ft | 479 kts | 237° |
| 2026-04-26 15:11 | 46.59108 | -65.21403 | 38174 ft | 480 kts | 237° |
| 2026-04-26 15:12 | 46.55317 | -65.29398 | 38169 ft | 481 kts | 237° |
| 2026-04-26 15:12 | 46.51510 | -65.37401 | 38174 ft | 482 kts | 237° |
| 2026-04-26 15:13 | 46.47692 | -65.45407 | 38172 ft | 483 kts | 237° |
| 2026-04-26 15:13 | 46.43855 | -65.53429 | 38170 ft | 483 kts | 237° |
| 2026-04-26 15:14 | 46.40013 | -65.61437 | 38154 ft | 483 kts | 237° |
| 2026-04-26 15:14 | 46.36182 | -65.69398 | 38160 ft | 480 kts | 237° |
| 2026-04-26 15:15 | 46.32367 | -65.77303 | 38165 ft | 478 kts | 237° |
| 2026-04-26 15:15 | 46.28565 | -65.85161 | 38166 ft | 476 kts | 237° |
| 2026-04-26 15:16 | 46.24776 | -65.92974 | 38168 ft | 474 kts | 237° |
| 2026-04-26 15:16 | 46.20988 | -66.00760 | 38172 ft | 473 kts | 237° |
| 2026-04-26 15:17 | 46.17841 | -66.07211 | 38172 ft | 473 kts | 237° |
| 2026-04-26 15:17 | 46.13404 | -66.16285 | 38172 ft | 474 kts | 237° |
| 2026-04-26 15:18 | 46.09596 | -66.24048 | 38172 ft | 474 kts | 237° |
| 2026-04-26 15:18 | 46.05784 | -66.31795 | 38174 ft | 474 kts | 237° |
| 2026-04-26 15:19 | 46.01973 | -66.39522 | 38159 ft | 473 kts | 237° |
| 2026-04-26 15:19 | 45.98183 | -66.47183 | 38164 ft | 473 kts | 237° |
| 2026-04-26 15:20 | 45.94370 | -66.54870 | 38165 ft | 472 kts | 237° |
| 2026-04-26 15:20 | 45.90555 | -66.62541 | 38169 ft | 471 kts | 237° |
| 2026-04-26 15:21 | 45.86740 | -66.70192 | 38170 ft | 471 kts | 237° |
| 2026-04-26 15:21 | 45.82923 | -66.77826 | 38171 ft | 471 kts | 237° |
| 2026-04-26 15:22 | 45.79102 | -66.85445 | 38170 ft | 470 kts | 237° |
| 2026-04-26 15:22 | 45.75280 | -66.93049 | 38164 ft | 470 kts | 237° |
| 2026-04-26 15:23 | 45.71453 | -67.00642 | 38185 ft | 470 kts | 237° |
| 2026-04-26 15:23 | 45.67621 | -67.08223 | 38166 ft | 470 kts | 237° |
| 2026-04-26 15:24 | 45.63784 | -67.15797 | 38174 ft | 470 kts | 237° |
| 2026-04-26 15:24 | 45.59972 | -67.23298 | 38169 ft | 469 kts | 236° |
| 2026-04-26 15:25 | 45.56756 | -67.29610 | 38171 ft | 469 kts | 236° |
| 2026-04-26 15:25 | 45.52293 | -67.38349 | 38172 ft | 469 kts | 236° |
| 2026-04-26 15:26 | 45.48455 | -67.45845 | 38175 ft | 468 kts | 236° |
| 2026-04-26 15:26 | 45.44614 | -67.53325 | 38176 ft | 468 kts | 236° |
| 2026-04-26 15:27 | 45.40769 | -67.60795 | 38181 ft | 467 kts | 236° |
| 2026-04-26 15:27 | 45.36921 | -67.68253 | 38182 ft | 467 kts | 236° |
| 2026-04-26 15:28 | 45.33322 | -67.75896 | 38179 ft | 463 kts | 243° |
| 2026-04-26 15:28 | 45.30578 | -67.84146 | 38191 ft | 461 kts | 247° |
| 2026-04-26 15:29 | 45.27899 | -67.92431 | 38191 ft | 462 kts | 247° |
| 2026-04-26 15:30 | 45.22476 | -68.08938 | 38189 ft | 463 kts | 246° |
| 2026-04-26 15:30 | 45.19733 | -68.17214 | 38200 ft | 463 kts | 246° |
| 2026-04-26 15:31 | 45.15605 | -68.29615 | 38200 ft | 464 kts | 246° |
| 2026-04-26 15:32 | 45.11934 | -68.40601 | 38201 ft | 464 kts | 246° |
| 2026-04-26 15:32 | 45.08697 | -68.50250 | 38202 ft | 464 kts | 246° |
| 2026-04-26 15:33 | 45.05923 | -68.58491 | 38199 ft | 464 kts | 246° |
| 2026-04-26 15:33 | 45.03142 | -68.66727 | 38195 ft | 464 kts | 246° |
| 2026-04-26 15:34 | 45.00355 | -68.74955 | 38196 ft | 464 kts | 245° |
| 2026-04-26 15:34 | 44.97562 | -68.83175 | 38203 ft | 464 kts | 245° |
| 2026-04-26 15:35 | 44.94765 | -68.91382 | 38199 ft | 464 kts | 245° |
| 2026-04-26 15:35 | 44.91981 | -68.99525 | 38197 ft | 464 kts | 245° |
| 2026-04-26 15:36 | 44.89169 | -69.07725 | 38201 ft | 464 kts | 245° |
| 2026-04-26 15:36 | 44.86350 | -69.15923 | 38197 ft | 465 kts | 245° |
| 2026-04-26 15:37 | 44.83518 | -69.24132 | 38196 ft | 466 kts | 245° |
| 2026-04-26 15:37 | 44.80681 | -69.32330 | 38193 ft | 466 kts | 245° |
| 2026-04-26 15:38 | 44.77834 | -69.40530 | 38195 ft | 466 kts | 245° |
| 2026-04-26 15:38 | 44.74982 | -69.48723 | 38189 ft | 466 kts | 245° |
| 2026-04-26 15:39 | 44.72121 | -69.56914 | 38187 ft | 467 kts | 245° |
| 2026-04-26 15:39 | 44.70222 | -69.62339 | 38185 ft | 467 kts | 244° |
| 2026-04-26 15:40 | 44.66372 | -69.73303 | 38187 ft | 468 kts | 244° |
| 2026-04-26 15:40 | 44.63485 | -69.81494 | 38187 ft | 468 kts | 244° |
| 2026-04-26 15:41 | 44.60609 | -69.89632 | 38187 ft | 468 kts | 244° |
| 2026-04-26 15:41 | 44.57706 | -69.97819 | 38182 ft | 469 kts | 244° |
| 2026-04-26 15:42 | 44.54800 | -70.05990 | 38196 ft | 468 kts | 244° |
| 2026-04-26 15:42 | 44.51883 | -70.14166 | 38196 ft | 469 kts | 244° |
| 2026-04-26 15:43 | 44.48962 | -70.22333 | 38207 ft | 469 kts | 244° |
| 2026-04-26 15:44 | 44.44558 | -70.34596 | 38190 ft | 470 kts | 244° |
| 2026-04-26 15:44 | 44.40144 | -70.46834 | 38200 ft | 469 kts | 244° |
| 2026-04-26 15:45 | 44.35720 | -70.59043 | 38203 ft | 469 kts | 244° |
| 2026-04-26 15:46 | 44.31306 | -70.71172 | 38196 ft | 469 kts | 244° |
| 2026-04-26 15:46 | 44.29324 | -70.76600 | 38202 ft | 469 kts | 244° |
| 2026-04-26 15:47 | 44.24396 | -70.90050 | 38197 ft | 468 kts | 243° |
| 2026-04-26 15:48 | 44.21429 | -70.98118 | 38200 ft | 468 kts | 243° |
| 2026-04-26 15:48 | 44.18457 | -71.06176 | 38195 ft | 467 kts | 243° |
| 2026-04-26 15:49 | 44.15477 | -71.14232 | 38193 ft | 467 kts | 243° |
| 2026-04-26 15:49 | 44.12491 | -71.22281 | 38195 ft | 468 kts | 243° |
| 2026-04-26 15:50 | 44.09495 | -71.30330 | 38200 ft | 468 kts | 243° |
| 2026-04-26 15:50 | 44.06493 | -71.38377 | 38200 ft | 469 kts | 243° |
| 2026-04-26 15:51 | 44.03481 | -71.46425 | 38193 ft | 469 kts | 243° |
| 2026-04-26 15:51 | 44.00465 | -71.54460 | 38193 ft | 468 kts | 243° |
| 2026-04-26 15:52 | 43.97451 | -71.62467 | 38193 ft | 468 kts | 243° |
| 2026-04-26 15:52 | 43.94448 | -71.70423 | 38185 ft | 468 kts | 243° |
| 2026-04-26 15:53 | 43.91415 | -71.78433 | 38184 ft | 468 kts | 243° |
| 2026-04-26 15:53 | 43.88383 | -71.86420 | 38189 ft | 468 kts | 243° |
| 2026-04-26 15:54 | 43.85346 | -71.94398 | 38178 ft | 468 kts | 243° |
| 2026-04-26 15:54 | 43.82303 | -72.02365 | 38185 ft | 467 kts | 243° |
| 2026-04-26 15:55 | 43.79264 | -72.10303 | 38195 ft | 467 kts | 243° |
| 2026-04-26 15:55 | 43.76219 | -72.18232 | 38186 ft | 467 kts | 243° |
| 2026-04-26 15:56 | 43.73161 | -72.26171 | 38192 ft | 467 kts | 243° |
| 2026-04-26 15:56 | 43.70102 | -72.34098 | 38190 ft | 468 kts | 243° |
| 2026-04-26 15:57 | 43.67033 | -72.42022 | 38195 ft | 468 kts | 243° |
| 2026-04-26 15:57 | 43.63956 | -72.49947 | 38193 ft | 468 kts | 243° |
| 2026-04-26 15:58 | 43.60877 | -72.57851 | 38188 ft | 467 kts | 243° |
| 2026-04-26 15:58 | 43.57819 | -72.65681 | 38188 ft | 466 kts | 243° |
| 2026-04-26 15:59 | 43.54741 | -72.73542 | 38190 ft | 466 kts | 243° |
| 2026-04-26 15:59 | 43.51657 | -72.81396 | 38196 ft | 466 kts | 243° |
| 2026-04-26 16:00 | 43.48565 | -72.89251 | 38189 ft | 467 kts | 243° |
| 2026-04-26 16:00 | 43.45463 | -72.97108 | 38194 ft | 467 kts | 243° |
| 2026-04-26 16:01 | 43.42347 | -73.04977 | 38203 ft | 469 kts | 243° |
| 2026-04-26 16:01 | 43.39216 | -73.12863 | 38194 ft | 470 kts | 243° |
| 2026-04-26 16:02 | 43.36071 | -73.20764 | 38177 ft | 471 kts | 243° |
| 2026-04-26 16:02 | 43.32922 | -73.28652 | 38188 ft | 470 kts | 243° |
| 2026-04-26 16:03 | 43.29794 | -73.36466 | 38191 ft | 470 kts | 243° |
| 2026-04-26 16:03 | 43.26641 | -73.44323 | 38199 ft | 470 kts | 243° |
| 2026-04-26 16:04 | 43.23482 | -73.52178 | 38188 ft | 470 kts | 243° |
| 2026-04-26 16:04 | 43.19883 | -73.59590 | 38191 ft | 471 kts | 224° |
| 2026-04-26 16:04 | 43.17249 | -73.62267 | 38209 ft | 475 kts | 211° |
| 2026-04-26 16:05 | 43.14185 | -73.63970 | 38190 ft | 476 kts | 199° |
| 2026-04-26 16:05 | 43.07798 | -73.66492 | 38199 ft | 480 kts | 199° |
| 2026-04-26 16:06 | 43.01372 | -73.69106 | 38209 ft | 483 kts | 200° |
| 2026-04-26 16:06 | 42.94924 | -73.71816 | 38207 ft | 486 kts | 200° |
| 2026-04-26 16:07 | 42.88481 | -73.74538 | 38206 ft | 489 kts | 200° |
| 2026-04-26 16:07 | 42.81998 | -73.77266 | 38172 ft | 480 kts | 200° |
| 2026-04-26 16:07 | 42.78860 | -73.78580 | 38159 ft | 464 kts | 200° |
| 2026-04-26 16:08 | 42.75804 | -73.79860 | 37813 ft | 455 kts | 200° |
| 2026-04-26 16:08 | 42.73811 | -73.80701 | 37569 ft | 450 kts | 201° |
| 2026-04-26 16:08 | 42.69864 | -73.82443 | 37031 ft | 441 kts | 201° |
| 2026-04-26 16:08 | 42.66968 | -73.83753 | 36608 ft | 436 kts | 202° |
| 2026-04-26 16:09 | 42.64113 | -73.85050 | 36216 ft | 430 kts | 202° |
| 2026-04-26 16:09 | 42.61292 | -73.86328 | 35820 ft | 425 kts | 202° |
| 2026-04-26 16:09 | 42.58504 | -73.87585 | 35412 ft | 420 kts | 202° |
| 2026-04-26 16:09 | 42.55736 | -73.88827 | 34977 ft | 417 kts | 202° |
| 2026-04-26 16:10 | 42.52984 | -73.90060 | 34441 ft | 416 kts | 202° |
| 2026-04-26 16:10 | 42.50233 | -73.91290 | 33865 ft | 416 kts | 202° |
| 2026-04-26 16:10 | 42.47493 | -73.92513 | 33286 ft | 414 kts | 202° |
| 2026-04-26 16:10 | 42.44808 | -73.93709 | 32816 ft | 410 kts | 202° |
| 2026-04-26 16:11 | 42.42105 | -73.94912 | 32365 ft | 407 kts | 202° |
| 2026-04-26 16:11 | 42.39424 | -73.96105 | 31988 ft | 405 kts | 202° |
| 2026-04-26 16:11 | 42.36751 | -73.97294 | 31630 ft | 405 kts | 202° |
| 2026-04-26 16:11 | 42.34067 | -73.98487 | 31289 ft | 408 kts | 202° |
| 2026-04-26 16:12 | 42.31366 | -73.99688 | 30954 ft | 410 kts | 202° |
| 2026-04-26 16:12 | 42.28648 | -74.00892 | 30581 ft | 410 kts | 203° |
| 2026-04-26 16:12 | 42.23214 | -74.03298 | 29833 ft | 411 kts | 203° |
| 2026-04-26 16:13 | 42.20492 | -74.04503 | 29430 ft | 411 kts | 203° |
| 2026-04-26 16:13 | 42.17777 | -74.05702 | 29025 ft | 411 kts | 203° |
| 2026-04-26 16:13 | 42.15101 | -74.06883 | 28666 ft | 410 kts | 203° |
| 2026-04-26 16:13 | 42.12394 | -74.08077 | 28285 ft | 409 kts | 203° |
| 2026-04-26 16:14 | 42.09700 | -74.09264 | 27882 ft | 406 kts | 203° |
| 2026-04-26 16:14 | 42.07029 | -74.10438 | 27494 ft | 401 kts | 203° |
| 2026-04-26 16:14 | 42.01775 | -74.12744 | 26775 ft | 393 kts | 204° |
| 2026-04-26 16:15 | 41.99184 | -74.13880 | 26391 ft | 391 kts | 204° |
| 2026-04-26 16:15 | 41.96611 | -74.15008 | 26008 ft | 388 kts | 204° |
| 2026-04-26 16:15 | 41.94053 | -74.16129 | 25629 ft | 385 kts | 204° |
| 2026-04-26 16:16 | 41.88994 | -74.18344 | 24879 ft | 380 kts | 204° |
| 2026-04-26 16:16 | 41.86489 | -74.19437 | 24526 ft | 377 kts | 204° |
| 2026-04-26 16:16 | 41.84000 | -74.20524 | 24170 ft | 375 kts | 204° |
| 2026-04-26 16:16 | 41.81530 | -74.21601 | 23823 ft | 372 kts | 204° |
| 2026-04-26 16:17 | 41.79075 | -74.22672 | 23434 ft | 370 kts | 204° |
| 2026-04-26 16:17 | 41.76637 | -74.23734 | 23056 ft | 367 kts | 204° |
| 2026-04-26 16:17 | 41.74217 | -74.24788 | 22685 ft | 364 kts | 204° |
| 2026-04-26 16:17 | 41.71816 | -74.25834 | 22331 ft | 361 kts | 204° |
| 2026-04-26 16:18 | 41.69465 | -74.26856 | 21957 ft | 359 kts | 203° |
| 2026-04-26 16:18 | 41.64761 | -74.28897 | 21295 ft | 350 kts | 203° |
| 2026-04-26 16:19 | 41.60154 | -74.30896 | 20623 ft | 347 kts | 203° |
| 2026-04-26 16:19 | 41.57840 | -74.31901 | 20294 ft | 354 kts | 203° |
| 2026-04-26 16:19 | 41.53856 | -74.33628 | 19708 ft | 361 kts | 202° |
| 2026-04-26 16:20 | 41.50696 | -74.34989 | 19225 ft | 358 kts | 202° |
| 2026-04-26 16:20 | 41.45982 | -74.37022 | 18506 ft | 354 kts | 203° |
| 2026-04-26 16:20 | 41.43649 | -74.38028 | 18121 ft | 351 kts | 202° |
| 2026-04-26 16:21 | 41.41331 | -74.39026 | 17742 ft | 348 kts | 202° |
| 2026-04-26 16:21 | 41.39037 | -74.40013 | 17385 ft | 345 kts | 202° |
| 2026-04-26 16:21 | 41.36759 | -74.40993 | 17033 ft | 342 kts | 202° |
| 2026-04-26 16:21 | 41.34504 | -74.41962 | 16673 ft | 339 kts | 202° |
| 2026-04-26 16:22 | 41.32255 | -74.42929 | 16202 ft | 340 kts | 202° |
| 2026-04-26 16:22 | 41.30007 | -74.43894 | 15831 ft | 338 kts | 202° |
| 2026-04-26 16:22 | 41.27779 | -74.44849 | 15477 ft | 336 kts | 202° |
| 2026-04-26 16:22 | 41.25563 | -74.45798 | 15128 ft | 333 kts | 201° |
| 2026-04-26 16:23 | 41.23366 | -74.46737 | 14787 ft | 330 kts | 201° |
| 2026-04-26 16:23 | 41.21188 | -74.47669 | 14448 ft | 328 kts | 201° |
| 2026-04-26 16:23 | 41.19025 | -74.48594 | 14119 ft | 326 kts | 201° |
| 2026-04-26 16:23 | 41.16875 | -74.49513 | 13755 ft | 324 kts | 201° |
| 2026-04-26 16:24 | 41.14740 | -74.50425 | 13396 ft | 321 kts | 201° |
| 2026-04-26 16:24 | 41.12621 | -74.51329 | 13052 ft | 319 kts | 200° |
| 2026-04-26 16:24 | 41.10517 | -74.52226 | 12718 ft | 316 kts | 200° |
| 2026-04-26 16:24 | 41.08460 | -74.53102 | 12409 ft | 313 kts | 200° |
| 2026-04-26 16:25 | 41.06385 | -74.53929 | 12074 ft | 309 kts | 193° |
| 2026-04-26 16:25 | 41.04265 | -74.54296 | 11776 ft | 306 kts | 185° |
| 2026-04-26 16:25 | 41.02147 | -74.54447 | 11467 ft | 303 kts | 183° |
| 2026-04-26 16:25 | 41.00049 | -74.54570 | 11177 ft | 301 kts | 183° |
| 2026-04-26 16:26 | 40.97969 | -74.54708 | 10863 ft | 298 kts | 183° |
| 2026-04-26 16:26 | 40.96602 | -74.54811 | 10687 ft | 296 kts | 183° |
| 2026-04-26 16:26 | 40.93863 | -74.55037 | 10293 ft | 293 kts | 183° |
| 2026-04-26 16:26 | 40.91825 | -74.55215 | 9986 ft | 294 kts | 183° |
| 2026-04-26 16:27 | 40.89769 | -74.55401 | 9672 ft | 299 kts | 183° |
| 2026-04-26 16:27 | 40.87667 | -74.55593 | 9369 ft | 304 kts | 183° |
| 2026-04-26 16:27 | 40.85551 | -74.55787 | 9040 ft | 304 kts | 183° |
| 2026-04-26 16:27 | 40.83454 | -74.55981 | 8734 ft | 300 kts | 182° |
| 2026-04-26 16:28 | 40.81381 | -74.56036 | 8435 ft | 296 kts | 176° |
| 2026-04-26 16:28 | 40.79368 | -74.55919 | 8168 ft | 292 kts | 175° |
| 2026-04-26 16:28 | 40.77348 | -74.55776 | 7851 ft | 290 kts | 174° |
| 2026-04-26 16:28 | 40.75337 | -74.55636 | 7570 ft | 288 kts | 175° |
| 2026-04-26 16:29 | 40.73337 | -74.55517 | 7276 ft | 287 kts | 175° |
| 2026-04-26 16:29 | 40.71346 | -74.55403 | 6989 ft | 286 kts | 175° |
| 2026-04-26 16:29 | 40.69367 | -74.55293 | 6698 ft | 283 kts | 175° |
| 2026-04-26 16:29 | 40.67408 | -74.55186 | 6412 ft | 280 kts | 175° |
| 2026-04-26 16:30 | 40.65469 | -74.55081 | 6104 ft | 276 kts | 174° |
| 2026-04-26 16:30 | 40.63682 | -74.54487 | 5787 ft | 261 kts | 144° |
| 2026-04-26 16:30 | 40.62411 | -74.52858 | 5538 ft | 254 kts | 121° |
| 2026-04-26 16:30 | 40.61499 | -74.50861 | 5300 ft | 257 kts | 116° |
| 2026-04-26 16:31 | 40.60609 | -74.48785 | 5042 ft | 261 kts | 116° |
| 2026-04-26 16:31 | 40.59719 | -74.46696 | 4766 ft | 262 kts | 115° |
| 2026-04-26 16:31 | 40.58835 | -74.44617 | 4506 ft | 259 kts | 115° |
| 2026-04-26 16:31 | 40.57959 | -74.42564 | 4259 ft | 255 kts | 115° |
| 2026-04-26 16:32 | 40.57095 | -74.40546 | 4021 ft | 252 kts | 115° |
| 2026-04-26 16:32 | 40.56528 | -74.39224 | 3863 ft | 250 kts | 115° |
| 2026-04-26 16:32 | 40.55385 | -74.36565 | 3529 ft | 248 kts | 115° |
| 2026-04-26 16:32 | 40.54557 | -74.34647 | 3265 ft | 236 kts | 115° |
| 2026-04-26 16:33 | 40.53774 | -74.32843 | 3032 ft | 221 kts | 115° |
| 2026-04-26 16:33 | 40.53030 | -74.31121 | 2861 ft | 212 kts | 114° |
| 2026-04-26 16:33 | 40.52641 | -74.29358 | 2591 ft | 196 kts | 84° |
| 2026-04-26 16:33 | 40.53150 | -74.27787 | 2354 ft | 186 kts | 46° |
| 2026-04-26 16:34 | 40.54102 | -74.26713 | 2168 ft | 177 kts | 38° |
| 2026-04-26 16:34 | 40.55106 | -74.25795 | 1940 ft | 173 kts | 34° |
| 2026-04-26 16:34 | 40.56112 | -74.24952 | 1800 ft | 174 kts | 32° |
| 2026-04-26 16:34 | 40.57175 | -74.24169 | 1762 ft | 173 kts | 30° |
| 2026-04-26 16:35 | 40.58229 | -74.23481 | 1707 ft | 167 kts | 28° |
| 2026-04-26 16:35 | 40.59259 | -74.22826 | 1695 ft | 163 kts | 28° |
| 2026-04-26 16:35 | 40.60246 | -74.22200 | 1702 ft | 151 kts | 27° |
| 2026-04-26 16:35 | 40.61170 | -74.21613 | 1556 ft | 147 kts | 28° |
| 2026-04-26 16:36 | 40.62077 | -74.21036 | 1361 ft | 138 kts | 28° |
| 2026-04-26 16:36 | 40.62908 | -74.20508 | 1183 ft | 131 kts | 27° |
| 2026-04-26 16:36 | 40.63720 | -74.19992 | 1028 ft | 130 kts | 28° |
| 2026-04-26 16:36 | 40.64522 | -74.19482 | 817 ft | 128 kts | 30° |
| 2026-04-26 16:37 | 40.65333 | -74.18964 | 645 ft | 133 kts | 27° |
| 2026-04-26 16:37 | 40.66167 | -74.18439 | 490 ft | 127 kts | 28° |
| 2026-04-26 16:37 | 40.66962 | -74.17935 | 298 ft | 128 kts | 29° |
| 2026-04-26 16:37 | 40.67485 | -74.17606 | 157 ft | 122 kts | 27° |
| 2026-04-26 16:38 | 40.68483 | -74.16963 | 27 ft | 113 kts | 25° |
| 2026-04-26 16:38 | 40.69075 | -74.16589 | 28 ft | 72 kts | 25° |
| 2026-04-26 16:38 | 40.69404 | -74.16377 | 29 ft | 41 kts | 26° |
| 2026-04-26 16:38 | 40.69559 | -74.16381 | 26 ft | 20 kts | 302° |
| 2026-04-26 16:39 | 40.69620 | -74.16541 | 26 ft | 20 kts | 296° |
| 2026-04-26 16:39 | 40.69673 | -74.16686 | 26 ft | 18 kts | 295° |
| 2026-04-26 16:39 | 40.69668 | -74.16827 | 26 ft | 15 kts | 250° |
| 2026-04-26 16:39 | 40.69597 | -74.16917 | 26 ft | 15 kts | 206° |
| 2026-04-26 16:40 | 40.69503 | -74.16977 | 26 ft | 15 kts | 206° |
| 2026-04-26 16:40 | 40.69408 | -74.17037 | 26 ft | 16 kts | 206° |
| 2026-04-26 16:40 | 40.69309 | -74.17100 | 26 ft | 16 kts | 206° |
| 2026-04-26 16:40 | 40.69209 | -74.17164 | 26 ft | 15 kts | 206° |
| 2026-04-26 16:41 | 40.69181 | -74.17250 | 26 ft | 10 kts | 277° |
| 2026-04-26 16:41 | 40.69185 | -74.17311 | 26 ft | 2 kts | 275° |
| 2026-04-26 16:41 | 40.69186 | -74.17322 | 26 ft | 1 kts | 275° |
| 2026-04-26 16:41 | 40.69186 | -74.17323 | 26 ft | 0 kts | 275° |